Check out our new PWSWeather beta!
PWSweather.com
Personal Weather Stations
Station Observations
KD5LEN
Ktxnorth1, North Richland Hills, TX 76180

Ktxnorth1North Richland Hills, TX 76180

Lat: 32.885294, Lon: -97.236048

Elevation: 694

Station Type: Vantage Pro 2

http://www.atzer0.net/VWS/root/index.htm

High Low Average
Temperature 84.8°F29.3°C 63.6°F17.6°C 75.9°F24.4°C
Dew Point 74.9°F23.8°C 61.4°F16.3°C 70.4°F21.3°C
Winds 22.0 mph 35.4 kmh Calm Calm 7.0 mph SSE11.3 kmh SSE
Wind Gusts 29.0 mph46.7 kmh 4.0 mph6.4 kmh 15.0 mph24.1 kmh
Humidity 95% 70% 83%
Pressure 29.95 in1014.2 mb 29.73 in1006.8 mb -
Precipitation 0.00 in0.0 mm - -
Hour Temp Dew Point Humidity Winds Wind Gusts Pressure Precip Precip Rate Daily Precip Total
12:00 AM 76.3°F24.6°C 72.2°F22.3°C 87% 8.0 mph S12.9 kmh S 16.0 mph25.7 kmh 29.75 in1007.5 mb 0.00 in0.0 mm 0.00 in0.0 mm 0.00 in0.0 mm
12:02 AM 76.3°F24.6°C 72.2°F22.3°C 87% 6.0 mph S9.7 kmh S 14.0 mph22.5 kmh 29.75 in1007.5 mb 0.00 in0.0 mm 0.00 in0.0 mm 0.00 in0.0 mm
12:03 AM 76.3°F24.6°C 72.2°F22.3°C 87% 10.0 mph S16.1 kmh S 14.0 mph22.5 kmh 29.75 in1007.5 mb 0.00 in0.0 mm 0.00 in0.0 mm 0.00 in0.0 mm
12:06 AM 76.3°F24.6°C 72.2°F22.3°C 87% 12.0 mph S19.3 kmh S 14.0 mph22.5 kmh 29.75 in1007.5 mb 0.00 in0.0 mm 0.00 in0.0 mm 0.00 in0.0 mm
12:08 AM 76.3°F24.6°C 72.2°F22.3°C 87% 3.0 mph S4.8 kmh S 14.0 mph22.5 kmh 29.75 in1007.5 mb 0.00 in0.0 mm 0.00 in0.0 mm 0.00 in0.0 mm
12:10 AM 76.3°F24.6°C 71.8°F22.1°C 86% 6.0 mph SSE9.7 kmh SSE 17.0 mph27.4 kmh 29.74 in1007.1 mb 0.00 in0.0 mm 0.00 in0.0 mm 0.00 in0.0 mm
12:12 AM 76.3°F24.6°C 71.8°F22.1°C 86% 6.0 mph SSW9.7 kmh SSW 17.0 mph27.4 kmh 29.74 in1007.1 mb 0.00 in0.0 mm 0.00 in0.0 mm 0.00 in0.0 mm
12:14 AM 76.3°F24.6°C 72.2°F22.3°C 87% 9.0 mph SSW14.5 kmh SSW 17.0 mph27.4 kmh 29.74 in1007.1 mb 0.00 in0.0 mm 0.00 in0.0 mm 0.00 in0.0 mm
12:16 AM 76.2°F24.6°C 72.1°F22.3°C 87% 6.0 mph SSE9.7 kmh SSE 17.0 mph27.4 kmh 29.74 in1007.1 mb 0.00 in0.0 mm 0.00 in0.0 mm 0.00 in0.0 mm
12:18 AM 76.2°F24.6°C 72.1°F22.3°C 87% 4.0 mph S6.4 kmh S 17.0 mph27.4 kmh 29.75 in1007.5 mb 0.00 in0.0 mm 0.00 in0.0 mm 0.00 in0.0 mm
12:20 AM 76.2°F24.6°C 72.1°F22.3°C 87% 11.0 mph S17.7 kmh S 17.0 mph27.4 kmh 29.74 in1007.1 mb 0.00 in0.0 mm 0.00 in0.0 mm 0.00 in0.0 mm
12:22 AM 76.2°F24.6°C 72.1°F22.3°C 87% 16.0 mph SE25.7 kmh SE 17.0 mph27.4 kmh 29.74 in1007.1 mb 0.00 in0.0 mm 0.00 in0.0 mm 0.00 in0.0 mm
12:24 AM 76.2°F24.6°C 72.1°F22.3°C 87% 8.0 mph SSE12.9 kmh SSE 17.0 mph27.4 kmh 29.74 in1007.1 mb 0.00 in0.0 mm 0.00 in0.0 mm 0.00 in0.0 mm
12:26 AM 76.2°F24.6°C 72.1°F22.3°C 87% 10.0 mph SE16.1 kmh SE 17.0 mph27.4 kmh 29.74 in1007.1 mb 0.00 in0.0 mm 0.00 in0.0 mm 0.00 in0.0 mm
12:28 AM 76.2°F24.6°C 72.1°F22.3°C 87% 9.0 mph S14.5 kmh S 17.0 mph27.4 kmh 29.74 in1007.1 mb 0.00 in0.0 mm 0.00 in0.0 mm 0.00 in0.0 mm
12:30 AM 76.2°F24.6°C 72.1°F22.3°C 87% 12.0 mph S19.3 kmh S 17.0 mph27.4 kmh 29.74 in1007.1 mb 0.00 in0.0 mm 0.00 in0.0 mm 0.00 in0.0 mm
12:32 AM 76.2°F24.6°C 72.1°F22.3°C 87% 9.0 mph S14.5 kmh S 12.0 mph19.3 kmh 29.74 in1007.1 mb 0.00 in0.0 mm 0.00 in0.0 mm 0.00 in0.0 mm
12:34 AM 76.1°F24.5°C 72.0°F22.2°C 87% 10.0 mph SSE16.1 kmh SSE 16.0 mph25.7 kmh 29.74 in1007.1 mb 0.00 in0.0 mm 0.00 in0.0 mm 0.00 in0.0 mm
12:36 AM 76.2°F24.6°C 72.1°F22.3°C 87% 13.0 mph SE20.9 kmh SE 16.0 mph25.7 kmh 29.73 in1006.8 mb 0.00 in0.0 mm 0.00 in0.0 mm 0.00 in0.0 mm
12:38 AM 76.2°F24.6°C 72.1°F22.3°C 87% 14.0 mph SE22.5 kmh SE 16.0 mph25.7 kmh 29.74 in1007.1 mb 0.00 in0.0 mm 0.00 in0.0 mm 0.00 in0.0 mm
12:40 AM 76.2°F24.6°C 72.1°F22.3°C 87% 6.0 mph SSE9.7 kmh SSE 16.0 mph25.7 kmh 29.73 in1006.8 mb 0.00 in0.0 mm 0.00 in0.0 mm 0.00 in0.0 mm
12:41 AM 76.2°F24.6°C 72.1°F22.3°C 87% 6.0 mph S9.7 kmh S 16.0 mph25.7 kmh 29.74 in1007.1 mb 0.00 in0.0 mm 0.00 in0.0 mm 0.00 in0.0 mm
12:44 AM 76.1°F24.5°C 72.0°F22.2°C 87% 4.0 mph SSW6.4 kmh SSW 16.0 mph25.7 kmh 29.74 in1007.1 mb 0.00 in0.0 mm 0.00 in0.0 mm 0.00 in0.0 mm
12:46 AM 76.1°F24.5°C 72.0°F22.2°C 87% 8.0 mph S12.9 kmh S 16.0 mph25.7 kmh 29.74 in1007.1 mb 0.00 in0.0 mm 0.00 in0.0 mm 0.00 in0.0 mm
12:48 AM 76.0°F24.4°C 71.9°F22.2°C 87% 5.0 mph SSW8.0 kmh SSW 16.0 mph25.7 kmh 29.74 in1007.1 mb 0.00 in0.0 mm 0.00 in0.0 mm 0.00 in0.0 mm
12:50 AM 76.0°F24.4°C 71.9°F22.2°C 87% 10.0 mph S16.1 kmh S 16.0 mph25.7 kmh 29.74 in1007.1 mb 0.00 in0.0 mm 0.00 in0.0 mm 0.00 in0.0 mm
12:52 AM 76.1°F24.5°C 72.0°F22.2°C 87% 2.0 mph S3.2 kmh S 16.0 mph25.7 kmh 29.74 in1007.1 mb 0.00 in0.0 mm 0.00 in0.0 mm 0.00 in0.0 mm
12:54 AM 76.1°F24.5°C 72.0°F22.2°C 87% 4.0 mph SE6.4 kmh SE 16.0 mph25.7 kmh 29.74 in1007.1 mb 0.00 in0.0 mm 0.00 in0.0 mm 0.00 in0.0 mm
12:56 AM 76.0°F24.4°C 71.9°F22.2°C 87% 5.0 mph SE8.0 kmh SE 16.0 mph25.7 kmh 29.74 in1007.1 mb 0.00 in0.0 mm 0.00 in0.0 mm 0.00 in0.0 mm
12:58 AM 76.1°F24.5°C 72.0°F22.2°C 87% 8.0 mph SSW12.9 kmh SSW 16.0 mph25.7 kmh 29.74 in1007.1 mb 0.00 in0.0 mm 0.00 in0.0 mm 0.00 in0.0 mm
01:00 AM 76.0°F24.4°C 71.9°F22.2°C 87% 11.0 mph SE17.7 kmh SE 17.0 mph27.4 kmh 29.74 in1007.1 mb 0.00 in0.0 mm 0.00 in0.0 mm 0.00 in0.0 mm
01:02 AM 76.0°F24.4°C 71.9°F22.2°C 87% 4.0 mph S6.4 kmh S 10.0 mph16.1 kmh 29.74 in1007.1 mb 0.00 in0.0 mm 0.00 in0.0 mm 0.00 in0.0 mm
01:04 AM 76.0°F24.4°C 71.9°F22.2°C 87% 6.0 mph SSE9.7 kmh SSE 10.0 mph16.1 kmh 29.74 in1007.1 mb 0.00 in0.0 mm 0.00 in0.0 mm 0.00 in0.0 mm
01:06 AM 76.0°F24.4°C 71.9°F22.2°C 87% 4.0 mph S6.4 kmh S 10.0 mph16.1 kmh 29.74 in1007.1 mb 0.00 in0.0 mm 0.00 in0.0 mm 0.00 in0.0 mm
01:08 AM 76.0°F24.4°C 71.9°F22.2°C 87% 5.0 mph S8.0 kmh S 10.0 mph16.1 kmh 29.74 in1007.1 mb 0.00 in0.0 mm 0.00 in0.0 mm 0.00 in0.0 mm
01:10 AM 76.0°F24.4°C 71.9°F22.2°C 87% 11.0 mph SSE17.7 kmh SSE 11.0 mph17.7 kmh 29.74 in1007.1 mb 0.00 in0.0 mm 0.00 in0.0 mm 0.00 in0.0 mm
01:11 AM 76.0°F24.4°C 71.9°F22.2°C 87% 10.0 mph S16.1 kmh S 12.0 mph19.3 kmh 29.74 in1007.1 mb 0.00 in0.0 mm 0.00 in0.0 mm 0.00 in0.0 mm
01:14 AM 76.0°F24.4°C 71.9°F22.2°C 87% 9.0 mph S14.5 kmh S 12.0 mph19.3 kmh 29.74 in1007.1 mb 0.00 in0.0 mm 0.00 in0.0 mm 0.00 in0.0 mm
01:16 AM 75.9°F24.4°C 71.8°F22.1°C 87% 11.0 mph SSE17.7 kmh SSE 12.0 mph19.3 kmh 29.74 in1007.1 mb 0.00 in0.0 mm 0.00 in0.0 mm 0.00 in0.0 mm
01:18 AM 75.9°F24.4°C 72.1°F22.3°C 88% 5.0 mph S8.0 kmh S 13.0 mph20.9 kmh 29.74 in1007.1 mb 0.00 in0.0 mm 0.00 in0.0 mm 0.00 in0.0 mm
01:20 AM 75.9°F24.4°C 72.1°F22.3°C 88% 8.0 mph SE12.9 kmh SE 13.0 mph20.9 kmh 29.74 in1007.1 mb 0.00 in0.0 mm 0.00 in0.0 mm 0.00 in0.0 mm
01:22 AM 75.9°F24.4°C 72.1°F22.3°C 88% 11.0 mph S17.7 kmh S 13.0 mph20.9 kmh 29.74 in1007.1 mb 0.00 in0.0 mm 0.00 in0.0 mm 0.00 in0.0 mm
01:24 AM 75.9°F24.4°C 72.1°F22.3°C 88% 8.0 mph S12.9 kmh S 13.0 mph20.9 kmh 29.74 in1007.1 mb 0.00 in0.0 mm 0.00 in0.0 mm 0.00 in0.0 mm
01:26 AM 75.9°F24.4°C 72.1°F22.3°C 88% 9.0 mph S14.5 kmh S 15.0 mph24.1 kmh 29.74 in1007.1 mb 0.00 in0.0 mm 0.00 in0.0 mm 0.00 in0.0 mm
01:28 AM 75.8°F24.3°C 72.0°F22.2°C 88% 11.0 mph S17.7 kmh S 15.0 mph24.1 kmh 29.75 in1007.5 mb 0.00 in0.0 mm 0.00 in0.0 mm 0.00 in0.0 mm
01:30 AM 75.8°F24.3°C 72.0°F22.2°C 88% 14.0 mph S22.5 kmh S 15.0 mph24.1 kmh 29.74 in1007.1 mb 0.00 in0.0 mm 0.00 in0.0 mm 0.00 in0.0 mm
01:32 AM 75.9°F24.4°C 72.1°F22.3°C 88% 3.0 mph SE4.8 kmh SE 17.0 mph27.4 kmh 29.74 in1007.1 mb 0.00 in0.0 mm 0.00 in0.0 mm 0.00 in0.0 mm
01:34 AM 75.9°F24.4°C 72.1°F22.3°C 88% 16.0 mph SW25.7 kmh SW 17.0 mph27.4 kmh 29.74 in1007.1 mb 0.00 in0.0 mm 0.00 in0.0 mm 0.00 in0.0 mm
01:36 AM 75.9°F24.4°C 72.1°F22.3°C 88% 8.0 mph SSW12.9 kmh SSW 17.0 mph27.4 kmh 29.74 in1007.1 mb 0.00 in0.0 mm 0.00 in0.0 mm 0.00 in0.0 mm
01:38 AM 75.9°F24.4°C 72.1°F22.3°C 88% 7.0 mph SSW11.3 kmh SSW 17.0 mph27.4 kmh 29.74 in1007.1 mb 0.00 in0.0 mm 0.00 in0.0 mm 0.00 in0.0 mm
01:40 AM 75.9°F24.4°C 72.1°F22.3°C 88% 12.0 mph S19.3 kmh S 17.0 mph27.4 kmh 29.74 in1007.1 mb 0.00 in0.0 mm 0.00 in0.0 mm 0.00 in0.0 mm
01:42 AM 75.9°F24.4°C 72.1°F22.3°C 88% 16.0 mph S25.7 kmh S 17.0 mph27.4 kmh 29.74 in1007.1 mb 0.00 in0.0 mm 0.00 in0.0 mm 0.00 in0.0 mm
01:44 AM 75.9°F24.4°C 72.1°F22.3°C 88% 5.0 mph S8.0 kmh S 17.0 mph27.4 kmh 29.74 in1007.1 mb 0.00 in0.0 mm 0.00 in0.0 mm 0.00 in0.0 mm
01:46 AM 75.8°F24.3°C 72.0°F22.2°C 88% 6.0 mph SE9.7 kmh SE 17.0 mph27.4 kmh 29.74 in1007.1 mb 0.00 in0.0 mm 0.00 in0.0 mm 0.00 in0.0 mm
01:48 AM 75.9°F24.4°C 72.1°F22.3°C 88% 9.0 mph SW14.5 kmh SW 17.0 mph27.4 kmh 29.74 in1007.1 mb 0.00 in0.0 mm 0.00 in0.0 mm 0.00 in0.0 mm
01:50 AM 75.9°F24.4°C 72.1°F22.3°C 88% 8.0 mph SE12.9 kmh SE 17.0 mph27.4 kmh 29.74 in1007.1 mb 0.00 in0.0 mm 0.00 in0.0 mm 0.00 in0.0 mm
01:53 AM 75.8°F24.3°C 72.0°F22.2°C 88% 10.0 mph S16.1 kmh S 17.0 mph27.4 kmh 29.74 in1007.1 mb 0.00 in0.0 mm 0.00 in0.0 mm 0.00 in0.0 mm
05:00 AM 74.6°F23.7°C 71.5°F21.9°C 90% 7.0 mph SE11.3 kmh SE 7.0 mph11.3 kmh 29.76 in1007.8 mb 0.00 in0.0 mm 0.00 in0.0 mm 0.00 in0.0 mm
05:02 AM 74.6°F23.7°C 71.5°F21.9°C 90% 8.0 mph SSW12.9 kmh SSW 9.0 mph14.5 kmh 29.76 in1007.8 mb 0.00 in0.0 mm 0.00 in0.0 mm 0.00 in0.0 mm
05:04 AM 74.6°F23.7°C 71.5°F21.9°C 90% 5.0 mph S8.0 kmh S 9.0 mph14.5 kmh 29.76 in1007.8 mb 0.00 in0.0 mm 0.00 in0.0 mm 0.00 in0.0 mm
05:06 AM 74.6°F23.7°C 71.8°F22.1°C 91% 5.0 mph SSW8.0 kmh SSW 9.0 mph14.5 kmh 29.77 in1008.1 mb 0.00 in0.0 mm 0.00 in0.0 mm 0.00 in0.0 mm
05:08 AM 74.6°F23.7°C 71.8°F22.1°C 91% 7.0 mph S11.3 kmh S 12.0 mph19.3 kmh 29.76 in1007.8 mb 0.00 in0.0 mm 0.00 in0.0 mm 0.00 in0.0 mm
05:10 AM 74.6°F23.7°C 71.8°F22.1°C 91% 7.0 mph S11.3 kmh S 12.0 mph19.3 kmh 29.77 in1008.1 mb 0.00 in0.0 mm 0.00 in0.0 mm 0.00 in0.0 mm
05:11 AM 74.6°F23.7°C 71.8°F22.1°C 91% 8.0 mph S12.9 kmh S 12.0 mph19.3 kmh 29.77 in1008.1 mb 0.00 in0.0 mm 0.00 in0.0 mm 0.00 in0.0 mm
05:14 AM 74.6°F23.7°C 71.8°F22.1°C 91% 9.0 mph SSE14.5 kmh SSE 12.0 mph19.3 kmh 29.77 in1008.1 mb 0.00 in0.0 mm 0.00 in0.0 mm 0.00 in0.0 mm
05:16 AM 74.6°F23.7°C 71.8°F22.1°C 91% 5.0 mph S8.0 kmh S 12.0 mph19.3 kmh 29.77 in1008.1 mb 0.00 in0.0 mm 0.00 in0.0 mm 0.00 in0.0 mm
05:18 AM 74.6°F23.7°C 71.8°F22.1°C 91% 7.0 mph S11.3 kmh S 14.0 mph22.5 kmh 29.77 in1008.1 mb 0.00 in0.0 mm 0.00 in0.0 mm 0.00 in0.0 mm
05:20 AM 74.6°F23.7°C 71.8°F22.1°C 91% 8.0 mph S12.9 kmh S 14.0 mph22.5 kmh 29.77 in1008.1 mb 0.00 in0.0 mm 0.00 in0.0 mm 0.00 in0.0 mm
05:22 AM 74.6°F23.7°C 71.8°F22.1°C 91% 7.0 mph S11.3 kmh S 14.0 mph22.5 kmh 29.77 in1008.1 mb 0.00 in0.0 mm 0.00 in0.0 mm 0.00 in0.0 mm
05:24 AM 74.7°F23.7°C 71.9°F22.2°C 91% 4.0 mph SSW6.4 kmh SSW 14.0 mph22.5 kmh 29.77 in1008.1 mb 0.00 in0.0 mm 0.00 in0.0 mm 0.00 in0.0 mm
05:26 AM 74.6°F23.7°C 71.8°F22.1°C 91% 7.0 mph SSE11.3 kmh SSE 14.0 mph22.5 kmh 29.77 in1008.1 mb 0.00 in0.0 mm 0.00 in0.0 mm 0.00 in0.0 mm
05:28 AM 74.7°F23.7°C 71.9°F22.2°C 91% 4.0 mph SW6.4 kmh SW 14.0 mph22.5 kmh 29.77 in1008.1 mb 0.00 in0.0 mm 0.00 in0.0 mm 0.00 in0.0 mm
05:30 AM 74.6°F23.7°C 71.8°F22.1°C 91% 8.0 mph SSW12.9 kmh SSW 14.0 mph22.5 kmh 29.77 in1008.1 mb 0.00 in0.0 mm 0.00 in0.0 mm 0.00 in0.0 mm
05:32 AM 74.7°F23.7°C 71.9°F22.2°C 91% 4.0 mph SSW6.4 kmh SSW 11.0 mph17.7 kmh 29.77 in1008.1 mb 0.00 in0.0 mm 0.00 in0.0 mm 0.00 in0.0 mm
05:34 AM 74.7°F23.7°C 71.9°F22.2°C 91% 4.0 mph S6.4 kmh S 11.0 mph17.7 kmh 29.78 in1008.5 mb 0.00 in0.0 mm 0.00 in0.0 mm 0.00 in0.0 mm
05:36 AM 74.8°F23.8°C 72.0°F22.2°C 91% 9.0 mph SSW14.5 kmh SSW 11.0 mph17.7 kmh 29.77 in1008.1 mb 0.00 in0.0 mm 0.00 in0.0 mm 0.00 in0.0 mm
05:38 AM 74.7°F23.7°C 71.9°F22.2°C 91% 9.0 mph S14.5 kmh S 11.0 mph17.7 kmh 29.78 in1008.5 mb 0.00 in0.0 mm 0.00 in0.0 mm 0.00 in0.0 mm
05:40 AM 74.7°F23.7°C 71.9°F22.2°C 91% 7.0 mph S11.3 kmh S 12.0 mph19.3 kmh 29.78 in1008.5 mb 0.00 in0.0 mm 0.00 in0.0 mm 0.00 in0.0 mm
05:42 AM 74.8°F23.8°C 72.0°F22.2°C 91% 8.0 mph S12.9 kmh S 12.0 mph19.3 kmh 29.78 in1008.5 mb 0.00 in0.0 mm 0.00 in0.0 mm 0.00 in0.0 mm
05:44 AM 74.8°F23.8°C 72.0°F22.2°C 91% 9.0 mph SSE14.5 kmh SSE 12.0 mph19.3 kmh 29.78 in1008.5 mb 0.00 in0.0 mm 0.00 in0.0 mm 0.00 in0.0 mm
05:46 AM 74.8°F23.8°C 72.0°F22.2°C 91% 4.0 mph S6.4 kmh S 12.0 mph19.3 kmh 29.78 in1008.5 mb 0.00 in0.0 mm 0.00 in0.0 mm 0.00 in0.0 mm
05:48 AM 74.8°F23.8°C 71.7°F22.1°C 90% 9.0 mph S14.5 kmh S 12.0 mph19.3 kmh 29.78 in1008.5 mb 0.00 in0.0 mm 0.00 in0.0 mm 0.00 in0.0 mm
05:50 AM 74.8°F23.8°C 72.0°F22.2°C 91% 3.0 mph S4.8 kmh S 12.0 mph19.3 kmh 29.78 in1008.5 mb 0.00 in0.0 mm 0.00 in0.0 mm 0.00 in0.0 mm
05:52 AM 74.9°F23.8°C 71.8°F22.1°C 90% 10.0 mph SSW16.1 kmh SSW 12.0 mph19.3 kmh 29.79 in1008.8 mb 0.00 in0.0 mm 0.00 in0.0 mm 0.00 in0.0 mm
05:54 AM 74.8°F23.8°C 71.7°F22.1°C 90% 5.0 mph SSE8.0 kmh SSE 12.0 mph19.3 kmh 29.78 in1008.5 mb 0.00 in0.0 mm 0.00 in0.0 mm 0.00 in0.0 mm
05:56 AM 74.8°F23.8°C 71.7°F22.1°C 90% 4.0 mph S6.4 kmh S 12.0 mph19.3 kmh 29.78 in1008.5 mb 0.00 in0.0 mm 0.00 in0.0 mm 0.00 in0.0 mm
05:58 AM 74.9°F23.8°C 72.1°F22.3°C 91% 5.0 mph S8.0 kmh S 12.0 mph19.3 kmh 29.78 in1008.5 mb 0.00 in0.0 mm 0.00 in0.0 mm 0.00 in0.0 mm
06:00 AM 74.8°F23.8°C 72.0°F22.2°C 91% 6.0 mph S9.7 kmh S 12.0 mph19.3 kmh 29.78 in1008.5 mb 0.00 in0.0 mm 0.00 in0.0 mm 0.00 in0.0 mm
06:02 AM 74.8°F23.8°C 72.0°F22.2°C 91% 4.0 mph SSE6.4 kmh SSE 10.0 mph16.1 kmh 29.78 in1008.5 mb 0.00 in0.0 mm 0.00 in0.0 mm 0.00 in0.0 mm
06:04 AM 74.8°F23.8°C 72.0°F22.2°C 91% 5.0 mph SSE8.0 kmh SSE 10.0 mph16.1 kmh 29.79 in1008.8 mb 0.00 in0.0 mm 0.00 in0.0 mm 0.00 in0.0 mm
06:06 AM 74.8°F23.8°C 72.0°F22.2°C 91% 5.0 mph S8.0 kmh S 10.0 mph16.1 kmh 29.78 in1008.5 mb 0.00 in0.0 mm 0.00 in0.0 mm 0.00 in0.0 mm
06:08 AM 74.8°F23.8°C 72.0°F22.2°C 91% 7.0 mph S11.3 kmh S 10.0 mph16.1 kmh 29.78 in1008.5 mb 0.00 in0.0 mm 0.00 in0.0 mm 0.00 in0.0 mm
06:10 AM 74.8°F23.8°C 72.0°F22.2°C 91% 5.0 mph S8.0 kmh S 10.0 mph16.1 kmh 29.79 in1008.8 mb 0.00 in0.0 mm 0.00 in0.0 mm 0.00 in0.0 mm
06:12 AM 74.8°F23.8°C 72.0°F22.2°C 91% 7.0 mph S11.3 kmh S 10.0 mph16.1 kmh 29.79 in1008.8 mb 0.00 in0.0 mm 0.00 in0.0 mm 0.00 in0.0 mm
06:14 AM 74.8°F23.8°C 72.0°F22.2°C 91% 5.0 mph SE8.0 kmh SE 10.0 mph16.1 kmh 29.78 in1008.5 mb 0.00 in0.0 mm 0.00 in0.0 mm 0.00 in0.0 mm
06:16 AM 74.7°F23.7°C 71.9°F22.2°C 91% 5.0 mph SE8.0 kmh SE 10.0 mph16.1 kmh 29.79 in1008.8 mb 0.00 in0.0 mm 0.00 in0.0 mm 0.00 in0.0 mm
06:18 AM 74.7°F23.7°C 71.9°F22.2°C 91% 3.0 mph S4.8 kmh S 10.0 mph16.1 kmh 29.79 in1008.8 mb 0.00 in0.0 mm 0.00 in0.0 mm 0.00 in0.0 mm
06:20 AM 74.8°F23.8°C 72.0°F22.2°C 91% 5.0 mph SW8.0 kmh SW 10.0 mph16.1 kmh 29.79 in1008.8 mb 0.00 in0.0 mm 0.00 in0.0 mm 0.00 in0.0 mm
06:22 AM 74.8°F23.8°C 72.0°F22.2°C 91% 5.0 mph SE8.0 kmh SE 11.0 mph17.7 kmh 29.79 in1008.8 mb 0.00 in0.0 mm 0.00 in0.0 mm 0.00 in0.0 mm
06:24 AM 74.8°F23.8°C 72.0°F22.2°C 91% 5.0 mph SSE8.0 kmh SSE 11.0 mph17.7 kmh 29.79 in1008.8 mb 0.00 in0.0 mm 0.00 in0.0 mm 0.00 in0.0 mm
06:26 AM 74.8°F23.8°C 72.0°F22.2°C 91% 4.0 mph S6.4 kmh S 11.0 mph17.7 kmh 29.80 in1009.1 mb 0.00 in0.0 mm 0.00 in0.0 mm 0.00 in0.0 mm
06:28 AM 74.8°F23.8°C 72.0°F22.2°C 91% 5.0 mph S8.0 kmh S 11.0 mph17.7 kmh 29.79 in1008.8 mb 0.00 in0.0 mm 0.00 in0.0 mm 0.00 in0.0 mm
06:30 AM 74.7°F23.7°C 71.9°F22.2°C 91% 7.0 mph SSE11.3 kmh SSE 11.0 mph17.7 kmh 29.79 in1008.8 mb 0.00 in0.0 mm 0.00 in0.0 mm 0.00 in0.0 mm
06:32 AM 74.7°F23.7°C 71.9°F22.2°C 91% 7.0 mph SSE11.3 kmh SSE 13.0 mph20.9 kmh 29.79 in1008.8 mb 0.00 in0.0 mm 0.00 in0.0 mm 0.00 in0.0 mm
06:34 AM 74.8°F23.8°C 72.0°F22.2°C 91% 2.0 mph SE3.2 kmh SE 13.0 mph20.9 kmh 29.79 in1008.8 mb 0.00 in0.0 mm 0.00 in0.0 mm 0.00 in0.0 mm
06:36 AM 74.8°F23.8°C 72.0°F22.2°C 91% 9.0 mph S14.5 kmh S 13.0 mph20.9 kmh 29.80 in1009.1 mb 0.00 in0.0 mm 0.00 in0.0 mm 0.00 in0.0 mm
06:38 AM 74.8°F23.8°C 72.0°F22.2°C 91% 5.0 mph S8.0 kmh S 13.0 mph20.9 kmh 29.79 in1008.8 mb 0.00 in0.0 mm 0.00 in0.0 mm 0.00 in0.0 mm
06:40 AM 74.8°F23.8°C 72.0°F22.2°C 91% 5.0 mph S8.0 kmh S 13.0 mph20.9 kmh 29.79 in1008.8 mb 0.00 in0.0 mm 0.00 in0.0 mm 0.00 in0.0 mm
06:42 AM 74.8°F23.8°C 72.0°F22.2°C 91% 5.0 mph SSW8.0 kmh SSW 13.0 mph20.9 kmh 29.79 in1008.8 mb 0.00 in0.0 mm 0.00 in0.0 mm 0.00 in0.0 mm
06:44 AM 74.9°F23.8°C 72.1°F22.3°C 91% 4.0 mph S6.4 kmh S 13.0 mph20.9 kmh 29.79 in1008.8 mb 0.00 in0.0 mm 0.00 in0.0 mm 0.00 in0.0 mm
06:46 AM 74.9°F23.8°C 72.1°F22.3°C 91% 8.0 mph SSE12.9 kmh SSE 13.0 mph20.9 kmh 29.80 in1009.1 mb 0.00 in0.0 mm 0.00 in0.0 mm 0.00 in0.0 mm
06:48 AM 74.9°F23.8°C 72.1°F22.3°C 91% 4.0 mph SSW6.4 kmh SSW 13.0 mph20.9 kmh 29.80 in1009.1 mb 0.00 in0.0 mm 0.00 in0.0 mm 0.00 in0.0 mm
06:50 AM 74.9°F23.8°C 72.1°F22.3°C 91% 9.0 mph S14.5 kmh S 13.0 mph20.9 kmh 29.80 in1009.1 mb 0.00 in0.0 mm 0.00 in0.0 mm 0.00 in0.0 mm
06:52 AM 74.9°F23.8°C 72.1°F22.3°C 91% 8.0 mph S12.9 kmh S 13.0 mph20.9 kmh 29.80 in1009.1 mb 0.00 in0.0 mm 0.00 in0.0 mm 0.00 in0.0 mm
06:54 AM 74.8°F23.8°C 72.0°F22.2°C 91% 3.0 mph SSE4.8 kmh SSE 14.0 mph22.5 kmh 29.80 in1009.1 mb 0.00 in0.0 mm 0.00 in0.0 mm 0.00 in0.0 mm
06:56 AM 74.9°F23.8°C 72.1°F22.3°C 91% 8.0 mph SSW12.9 kmh SSW 14.0 mph22.5 kmh 29.80 in1009.1 mb 0.00 in0.0 mm 0.00 in0.0 mm 0.00 in0.0 mm
06:57 AM 74.9°F23.8°C 72.1°F22.3°C 91% 5.0 mph SSW8.0 kmh SSW 14.0 mph22.5 kmh 29.80 in1009.1 mb 0.00 in0.0 mm 0.00 in0.0 mm 0.00 in0.0 mm
07:00 AM 74.9°F23.8°C 72.1°F22.3°C 91% 6.0 mph SSW9.7 kmh SSW 14.0 mph22.5 kmh 29.80 in1009.1 mb 0.00 in0.0 mm 0.00 in0.0 mm 0.00 in0.0 mm
07:02 AM 74.9°F23.8°C 72.1°F22.3°C 91% 5.0 mph SSW8.0 kmh SSW 11.0 mph17.7 kmh 29.80 in1009.1 mb 0.00 in0.0 mm 0.00 in0.0 mm 0.00 in0.0 mm
07:04 AM 74.9°F23.8°C 72.1°F22.3°C 91% 5.0 mph S8.0 kmh S 11.0 mph17.7 kmh 29.81 in1009.5 mb 0.00 in0.0 mm 0.00 in0.0 mm 0.00 in0.0 mm
07:06 AM 75.0°F23.9°C 72.2°F22.3°C 91% 7.0 mph S11.3 kmh S 11.0 mph17.7 kmh 29.81 in1009.5 mb 0.00 in0.0 mm 0.00 in0.0 mm 0.00 in0.0 mm
07:08 AM 75.0°F23.9°C 72.2°F22.3°C 91% 2.0 mph SSE3.2 kmh SSE 11.0 mph17.7 kmh 29.81 in1009.5 mb 0.00 in0.0 mm 0.00 in0.0 mm 0.00 in0.0 mm
07:10 AM 75.1°F23.9°C 72.3°F22.4°C 91% 9.0 mph SSE14.5 kmh SSE 11.0 mph17.7 kmh 29.81 in1009.5 mb 0.00 in0.0 mm 0.00 in0.0 mm 0.00 in0.0 mm
07:12 AM 75.1°F23.9°C 72.3°F22.4°C 91% 5.0 mph S8.0 kmh S 11.0 mph17.7 kmh 29.81 in1009.5 mb 0.00 in0.0 mm 0.00 in0.0 mm 0.00 in0.0 mm
07:14 AM 75.1°F23.9°C 72.3°F22.4°C 91% 7.0 mph SSE11.3 kmh SSE 11.0 mph17.7 kmh 29.81 in1009.5 mb 0.00 in0.0 mm 0.00 in0.0 mm 0.00 in0.0 mm
07:16 AM 75.1°F23.9°C 72.3°F22.4°C 91% 6.0 mph S9.7 kmh S 11.0 mph17.7 kmh 29.81 in1009.5 mb 0.00 in0.0 mm 0.00 in0.0 mm 0.00 in0.0 mm
07:18 AM 75.1°F23.9°C 72.3°F22.4°C 91% 2.0 mph S3.2 kmh S 11.0 mph17.7 kmh 29.81 in1009.5 mb 0.00 in0.0 mm 0.00 in0.0 mm 0.00 in0.0 mm
07:20 AM 75.2°F24.0°C 72.4°F22.4°C 91% 8.0 mph SSE12.9 kmh SSE 11.0 mph17.7 kmh 29.81 in1009.5 mb 0.00 in0.0 mm 0.00 in0.0 mm 0.00 in0.0 mm
07:21 AM 75.2°F24.0°C 72.4°F22.4°C 91% 10.0 mph S16.1 kmh S 11.0 mph17.7 kmh 29.81 in1009.5 mb 0.00 in0.0 mm 0.00 in0.0 mm 0.00 in0.0 mm
07:24 AM 75.2°F24.0°C 72.4°F22.4°C 91% 9.0 mph SSW14.5 kmh SSW 11.0 mph17.7 kmh 29.81 in1009.5 mb 0.00 in0.0 mm 0.00 in0.0 mm 0.00 in0.0 mm
07:26 AM 75.3°F24.1°C 72.2°F22.3°C 90% 9.0 mph SSE14.5 kmh SSE 11.0 mph17.7 kmh 29.81 in1009.5 mb 0.00 in0.0 mm 0.00 in0.0 mm 0.00 in0.0 mm
07:28 AM 75.4°F24.1°C 72.3°F22.4°C 90% 9.0 mph S14.5 kmh S 11.0 mph17.7 kmh 29.81 in1009.5 mb 0.00 in0.0 mm 0.00 in0.0 mm 0.00 in0.0 mm
07:30 AM 75.4°F24.1°C 72.3°F22.4°C 90% 8.0 mph SSE12.9 kmh SSE 11.0 mph17.7 kmh 29.81 in1009.5 mb 0.00 in0.0 mm 0.00 in0.0 mm 0.00 in0.0 mm
07:32 AM 75.4°F24.1°C 72.3°F22.4°C 90% 6.0 mph S9.7 kmh S 12.0 mph19.3 kmh 29.81 in1009.5 mb 0.00 in0.0 mm 0.00 in0.0 mm 0.00 in0.0 mm
07:34 AM 75.5°F24.2°C 72.4°F22.4°C 90% 4.0 mph SE6.4 kmh SE 12.0 mph19.3 kmh 29.81 in1009.5 mb 0.00 in0.0 mm 0.00 in0.0 mm 0.00 in0.0 mm
07:36 AM 75.5°F24.2°C 72.4°F22.4°C 90% 9.0 mph SSE14.5 kmh SSE 12.0 mph19.3 kmh 29.81 in1009.5 mb 0.00 in0.0 mm 0.00 in0.0 mm 0.00 in0.0 mm
07:38 AM 75.6°F24.2°C 72.5°F22.5°C 90% 4.0 mph S6.4 kmh S 12.0 mph19.3 kmh 29.81 in1009.5 mb 0.00 in0.0 mm 0.00 in0.0 mm 0.00 in0.0 mm
07:40 AM 75.6°F24.2°C 72.5°F22.5°C 90% 6.0 mph SSE9.7 kmh SSE 14.0 mph22.5 kmh 29.82 in1009.8 mb 0.00 in0.0 mm 0.00 in0.0 mm 0.00 in0.0 mm
07:42 AM 75.6°F24.2°C 72.5°F22.5°C 90% 7.0 mph SSE11.3 kmh SSE 14.0 mph22.5 kmh 29.81 in1009.5 mb 0.00 in0.0 mm 0.00 in0.0 mm 0.00 in0.0 mm
07:44 AM 75.7°F24.3°C 72.6°F22.6°C 90% 7.0 mph SSW11.3 kmh SSW 14.0 mph22.5 kmh 29.81 in1009.5 mb 0.00 in0.0 mm 0.00 in0.0 mm 0.00 in0.0 mm
07:46 AM 75.7°F24.3°C 72.6°F22.6°C 90% 10.0 mph S16.1 kmh S 14.0 mph22.5 kmh 29.81 in1009.5 mb 0.00 in0.0 mm 0.00 in0.0 mm 0.00 in0.0 mm
07:48 AM 75.8°F24.3°C 72.7°F22.6°C 90% 3.0 mph S4.8 kmh S 14.0 mph22.5 kmh 29.81 in1009.5 mb 0.00 in0.0 mm 0.00 in0.0 mm 0.00 in0.0 mm
07:50 AM 75.9°F24.4°C 72.8°F22.7°C 90% 10.0 mph S16.1 kmh S 14.0 mph22.5 kmh 29.81 in1009.5 mb 0.00 in0.0 mm 0.00 in0.0 mm 0.00 in0.0 mm
07:52 AM 75.9°F24.4°C 72.4°F22.4°C 89% 11.0 mph S17.7 kmh S 14.0 mph22.5 kmh 29.81 in1009.5 mb 0.00 in0.0 mm 0.00 in0.0 mm 0.00 in0.0 mm
07:54 AM 76.0°F24.4°C 72.5°F22.5°C 89% 2.0 mph S3.2 kmh S 14.0 mph22.5 kmh 29.81 in1009.5 mb 0.00 in0.0 mm 0.00 in0.0 mm 0.00 in0.0 mm
07:56 AM 76.0°F24.4°C 72.5°F22.5°C 89% 5.0 mph S8.0 kmh S 14.0 mph22.5 kmh 29.81 in1009.5 mb 0.00 in0.0 mm 0.00 in0.0 mm 0.00 in0.0 mm
07:58 AM 76.1°F24.5°C 72.6°F22.6°C 89% 6.0 mph S9.7 kmh S 14.0 mph22.5 kmh 29.81 in1009.5 mb 0.00 in0.0 mm 0.00 in0.0 mm 0.00 in0.0 mm
08:00 AM 76.2°F24.6°C 72.7°F22.6°C 89% 7.0 mph SSW11.3 kmh SSW 14.0 mph22.5 kmh 29.81 in1009.5 mb 0.00 in0.0 mm 0.00 in0.0 mm 0.00 in0.0 mm
08:02 AM 76.2°F24.6°C 72.7°F22.6°C 89% 13.0 mph SSE20.9 kmh SSE 13.0 mph20.9 kmh 29.81 in1009.5 mb 0.00 in0.0 mm 0.00 in0.0 mm 0.00 in0.0 mm
08:04 AM 76.2°F24.6°C 72.4°F22.4°C 88% 9.0 mph SW14.5 kmh SW 13.0 mph20.9 kmh 29.81 in1009.5 mb 0.00 in0.0 mm 0.00 in0.0 mm 0.00 in0.0 mm
08:06 AM 76.4°F24.7°C 72.6°F22.6°C 88% 8.0 mph S12.9 kmh S 13.0 mph20.9 kmh 29.81 in1009.5 mb 0.00 in0.0 mm 0.00 in0.0 mm 0.00 in0.0 mm
08:08 AM 76.4°F24.7°C 72.6°F22.6°C 88% 3.0 mph S4.8 kmh S 15.0 mph24.1 kmh 29.81 in1009.5 mb 0.00 in0.0 mm 0.00 in0.0 mm 0.00 in0.0 mm
08:09 AM 76.5°F24.7°C 72.7°F22.6°C 88% 7.0 mph S11.3 kmh S 15.0 mph24.1 kmh 29.81 in1009.5 mb 0.00 in0.0 mm 0.00 in0.0 mm 0.00 in0.0 mm
08:12 AM 76.5°F24.7°C 72.7°F22.6°C 88% 6.0 mph S9.7 kmh S 15.0 mph24.1 kmh 29.81 in1009.5 mb 0.00 in0.0 mm 0.00 in0.0 mm 0.00 in0.0 mm
08:14 AM 76.5°F24.7°C 72.7°F22.6°C 88% 6.0 mph SSW9.7 kmh SSW 15.0 mph24.1 kmh 29.81 in1009.5 mb 0.00 in0.0 mm 0.00 in0.0 mm 0.00 in0.0 mm
08:16 AM 76.6°F24.8°C 72.8°F22.7°C 88% 12.0 mph SE19.3 kmh SE 15.0 mph24.1 kmh 29.81 in1009.5 mb 0.00 in0.0 mm 0.00 in0.0 mm 0.00 in0.0 mm
08:18 AM 76.6°F24.8°C 72.5°F22.5°C 87% 6.0 mph SSE9.7 kmh SSE 16.0 mph25.7 kmh 29.81 in1009.5 mb 0.00 in0.0 mm 0.00 in0.0 mm 0.00 in0.0 mm
08:20 AM 76.7°F24.8°C 72.9°F22.7°C 88% 8.0 mph SE12.9 kmh SE 16.0 mph25.7 kmh 29.81 in1009.5 mb 0.00 in0.0 mm 0.00 in0.0 mm 0.00 in0.0 mm
08:22 AM 76.8°F24.9°C 73.0°F22.8°C 88% 4.0 mph SSW6.4 kmh SSW 16.0 mph25.7 kmh 29.81 in1009.5 mb 0.00 in0.0 mm 0.00 in0.0 mm 0.00 in0.0 mm
08:24 AM 76.8°F24.9°C 72.6°F22.6°C 87% 10.0 mph S16.1 kmh S 16.0 mph25.7 kmh 29.81 in1009.5 mb 0.00 in0.0 mm 0.00 in0.0 mm 0.00 in0.0 mm
08:26 AM 76.8°F24.9°C 72.6°F22.6°C 87% 10.0 mph SW16.1 kmh SW 16.0 mph25.7 kmh 29.81 in1009.5 mb 0.00 in0.0 mm 0.00 in0.0 mm 0.00 in0.0 mm
08:28 AM 76.9°F24.9°C 72.7°F22.6°C 87% 12.0 mph S19.3 kmh S 16.0 mph25.7 kmh 29.81 in1009.5 mb 0.00 in0.0 mm 0.00 in0.0 mm 0.00 in0.0 mm
08:30 AM 76.9°F24.9°C 72.7°F22.6°C 87% 10.0 mph SSE16.1 kmh SSE 16.0 mph25.7 kmh 29.81 in1009.5 mb 0.00 in0.0 mm 0.00 in0.0 mm 0.00 in0.0 mm
08:32 AM 77.0°F25.0°C 72.8°F22.7°C 87% 9.0 mph SSE14.5 kmh SSE 11.0 mph17.7 kmh 29.82 in1009.8 mb 0.00 in0.0 mm 0.00 in0.0 mm 0.00 in0.0 mm
08:34 AM 77.0°F25.0°C 72.8°F22.7°C 87% 5.0 mph S8.0 kmh S 14.0 mph22.5 kmh 29.81 in1009.5 mb 0.00 in0.0 mm 0.00 in0.0 mm 0.00 in0.0 mm
08:36 AM 77.0°F25.0°C 72.8°F22.7°C 87% 10.0 mph SSW16.1 kmh SSW 14.0 mph22.5 kmh 29.82 in1009.8 mb 0.00 in0.0 mm 0.00 in0.0 mm 0.00 in0.0 mm
08:38 AM 77.0°F25.0°C 72.5°F22.5°C 86% 3.0 mph SSE4.8 kmh SSE 16.0 mph25.7 kmh 29.81 in1009.5 mb 0.00 in0.0 mm 0.00 in0.0 mm 0.00 in0.0 mm
08:40 AM 77.1°F25.1°C 72.6°F22.6°C 86% 5.0 mph S8.0 kmh S 16.0 mph25.7 kmh 29.82 in1009.8 mb 0.00 in0.0 mm 0.00 in0.0 mm 0.00 in0.0 mm
08:42 AM 77.1°F25.1°C 72.9°F22.7°C 87% 11.0 mph S17.7 kmh S 16.0 mph25.7 kmh 29.82 in1009.8 mb 0.00 in0.0 mm 0.00 in0.0 mm 0.00 in0.0 mm
08:44 AM 77.2°F25.1°C 73.0°F22.8°C 87% 6.0 mph S9.7 kmh S 16.0 mph25.7 kmh 29.82 in1009.8 mb 0.00 in0.0 mm 0.00 in0.0 mm 0.00 in0.0 mm
08:46 AM 77.1°F25.1°C 72.9°F22.7°C 87% 9.0 mph S14.5 kmh S 16.0 mph25.7 kmh 29.82 in1009.8 mb 0.00 in0.0 mm 0.00 in0.0 mm 0.00 in0.0 mm
08:48 AM 77.2°F25.1°C 73.0°F22.8°C 87% 3.0 mph S4.8 kmh S 16.0 mph25.7 kmh 29.82 in1009.8 mb 0.00 in0.0 mm 0.00 in0.0 mm 0.00 in0.0 mm
08:50 AM 77.2°F25.1°C 73.0°F22.8°C 87% 7.0 mph SSE11.3 kmh SSE 16.0 mph25.7 kmh 29.82 in1009.8 mb 0.00 in0.0 mm 0.00 in0.0 mm 0.00 in0.0 mm
08:52 AM 77.3°F25.2°C 73.1°F22.8°C 87% 7.0 mph S11.3 kmh S 16.0 mph25.7 kmh 29.82 in1009.8 mb 0.00 in0.0 mm 0.00 in0.0 mm 0.00 in0.0 mm
08:54 AM 77.3°F25.2°C 73.1°F22.8°C 87% 9.0 mph S14.5 kmh S 16.0 mph25.7 kmh 29.82 in1009.8 mb 0.00 in0.0 mm 0.00 in0.0 mm 0.00 in0.0 mm
08:56 AM 77.4°F25.2°C 73.2°F22.9°C 87% 9.0 mph SSE14.5 kmh SSE 16.0 mph25.7 kmh 29.82 in1009.8 mb 0.00 in0.0 mm 0.00 in0.0 mm 0.00 in0.0 mm
08:58 AM 77.5°F25.3°C 73.0°F22.8°C 86% 7.0 mph S11.3 kmh S 16.0 mph25.7 kmh 29.82 in1009.8 mb 0.00 in0.0 mm 0.00 in0.0 mm 0.00 in0.0 mm
09:00 AM 77.5°F25.3°C 73.0°F22.8°C 86% 7.0 mph S11.3 kmh S 16.0 mph25.7 kmh 29.82 in1009.8 mb 0.00 in0.0 mm 0.00 in0.0 mm 0.00 in0.0 mm
09:02 AM 77.5°F25.3°C 73.0°F22.8°C 86% 6.0 mph SSE9.7 kmh SSE 16.0 mph25.7 kmh 29.82 in1009.8 mb 0.00 in0.0 mm 0.00 in0.0 mm 0.00 in0.0 mm
09:04 AM 77.6°F25.3°C 73.1°F22.8°C 86% 6.0 mph S9.7 kmh S 16.0 mph25.7 kmh 29.82 in1009.8 mb 0.00 in0.0 mm 0.00 in0.0 mm 0.00 in0.0 mm
09:06 AM 77.6°F25.3°C 73.1°F22.8°C 86% 6.0 mph SSW9.7 kmh SSW 16.0 mph25.7 kmh 29.82 in1009.8 mb 0.00 in0.0 mm 0.00 in0.0 mm 0.00 in0.0 mm
09:08 AM 77.7°F25.4°C 73.2°F22.9°C 86% 5.0 mph S8.0 kmh S 16.0 mph25.7 kmh 29.82 in1009.8 mb 0.00 in0.0 mm 0.00 in0.0 mm 0.00 in0.0 mm
09:10 AM 77.8°F25.4°C 72.9°F22.7°C 85% 7.0 mph SSE11.3 kmh SSE 16.0 mph25.7 kmh 29.82 in1009.8 mb 0.00 in0.0 mm 0.00 in0.0 mm 0.00 in0.0 mm
09:12 AM 77.9°F25.5°C 73.4°F23.0°C 86% 3.0 mph S4.8 kmh S 16.0 mph25.7 kmh 29.82 in1009.8 mb 0.00 in0.0 mm 0.00 in0.0 mm 0.00 in0.0 mm
09:14 AM 78.0°F25.6°C 73.1°F22.8°C 85% 6.0 mph S9.7 kmh S 16.0 mph25.7 kmh 29.82 in1009.8 mb 0.00 in0.0 mm 0.00 in0.0 mm 0.00 in0.0 mm
09:16 AM 78.1°F25.6°C 73.6°F23.1°C 86% 6.0 mph S9.7 kmh S 16.0 mph25.7 kmh 29.82 in1009.8 mb 0.00 in0.0 mm 0.00 in0.0 mm 0.00 in0.0 mm
09:18 AM 78.2°F25.7°C 73.3°F22.9°C 85% 6.0 mph S9.7 kmh S 16.0 mph25.7 kmh 29.82 in1009.8 mb 0.00 in0.0 mm 0.00 in0.0 mm 0.00 in0.0 mm
09:20 AM 78.3°F25.7°C 73.1°F22.8°C 84% 3.0 mph S4.8 kmh S 17.0 mph27.4 kmh 29.82 in1009.8 mb 0.00 in0.0 mm 0.00 in0.0 mm 0.00 in0.0 mm
09:22 AM 78.3°F25.7°C 73.1°F22.8°C 84% 4.0 mph SE6.4 kmh SE 17.0 mph27.4 kmh 29.82 in1009.8 mb 0.00 in0.0 mm 0.00 in0.0 mm 0.00 in0.0 mm
09:24 AM 78.3°F25.7°C 73.1°F22.8°C 84% 7.0 mph SSW11.3 kmh SSW 17.0 mph27.4 kmh 29.82 in1009.8 mb 0.00 in0.0 mm 0.00 in0.0 mm 0.00 in0.0 mm
09:26 AM 78.3°F25.7°C 73.1°F22.8°C 84% 12.0 mph S19.3 kmh S 17.0 mph27.4 kmh 29.82 in1009.8 mb 0.00 in0.0 mm 0.00 in0.0 mm 0.00 in0.0 mm
09:28 AM 78.4°F25.8°C 73.2°F22.9°C 84% 5.0 mph S8.0 kmh S 17.0 mph27.4 kmh 29.82 in1009.8 mb 0.00 in0.0 mm 0.00 in0.0 mm 0.00 in0.0 mm
09:30 AM 78.5°F25.8°C 73.3°F22.9°C 84% 4.0 mph S6.4 kmh S 17.0 mph27.4 kmh 29.82 in1009.8 mb 0.00 in0.0 mm 0.00 in0.0 mm 0.00 in0.0 mm
09:32 AM 78.5°F25.8°C 73.3°F22.9°C 84% 10.0 mph S16.1 kmh S 13.0 mph20.9 kmh 29.83 in1010.2 mb 0.00 in0.0 mm 0.00 in0.0 mm 0.00 in0.0 mm
09:34 AM 78.6°F25.9°C 73.0°F22.8°C 83% 5.0 mph S8.0 kmh S 13.0 mph20.9 kmh 29.82 in1009.8 mb 0.00 in0.0 mm 0.00 in0.0 mm 0.00 in0.0 mm
09:36 AM 78.6°F25.9°C 73.4°F23.0°C 84% 14.0 mph S22.5 kmh S 14.0 mph22.5 kmh 29.82 in1009.8 mb 0.00 in0.0 mm 0.00 in0.0 mm 0.00 in0.0 mm
09:38 AM 78.6°F25.9°C 73.0°F22.8°C 83% 11.0 mph SSW17.7 kmh SSW 14.0 mph22.5 kmh 29.83 in1010.2 mb 0.00 in0.0 mm 0.00 in0.0 mm 0.00 in0.0 mm
09:40 AM 78.7°F25.9°C 73.5°F23.1°C 84% 8.0 mph SSE12.9 kmh SSE 14.0 mph22.5 kmh 29.83 in1010.2 mb 0.00 in0.0 mm 0.00 in0.0 mm 0.00 in0.0 mm
09:42 AM 78.8°F26.0°C 73.2°F22.9°C 83% 12.0 mph S19.3 kmh S 15.0 mph24.1 kmh 29.83 in1010.2 mb 0.00 in0.0 mm 0.00 in0.0 mm 0.00 in0.0 mm
09:44 AM 78.8°F26.0°C 73.2°F22.9°C 83% 8.0 mph S12.9 kmh S 15.0 mph24.1 kmh 29.83 in1010.2 mb 0.00 in0.0 mm 0.00 in0.0 mm 0.00 in0.0 mm
09:46 AM 78.9°F26.1°C 73.3°F22.9°C 83% 14.0 mph SSE22.5 kmh SSE 15.0 mph24.1 kmh 29.82 in1009.8 mb 0.00 in0.0 mm 0.00 in0.0 mm 0.00 in0.0 mm
09:48 AM 78.9°F26.1°C 73.3°F22.9°C 83% 15.0 mph S24.1 kmh S 15.0 mph24.1 kmh 29.83 in1010.2 mb 0.00 in0.0 mm 0.00 in0.0 mm 0.00 in0.0 mm
09:50 AM 79.0°F26.1°C 73.4°F23.0°C 83% 8.0 mph S12.9 kmh S 15.0 mph24.1 kmh 29.83 in1010.2 mb 0.00 in0.0 mm 0.00 in0.0 mm 0.00 in0.0 mm
09:52 AM 79.1°F26.2°C 73.1°F22.8°C 82% 7.0 mph SSW11.3 kmh SSW 15.0 mph24.1 kmh 29.83 in1010.2 mb 0.00 in0.0 mm 0.00 in0.0 mm 0.00 in0.0 mm
09:54 AM 79.2°F26.2°C 73.2°F22.9°C 82% 17.0 mph SSE27.4 kmh SSE 17.0 mph27.4 kmh 29.83 in1010.2 mb 0.00 in0.0 mm 0.00 in0.0 mm 0.00 in0.0 mm
09:56 AM 79.2°F26.2°C 73.2°F22.9°C 82% 6.0 mph SSW9.7 kmh SSW 17.0 mph27.4 kmh 29.83 in1010.2 mb 0.00 in0.0 mm 0.00 in0.0 mm 0.00 in0.0 mm
09:58 AM 79.2°F26.2°C 73.2°F22.9°C 82% 11.0 mph SE17.7 kmh SE 17.0 mph27.4 kmh 29.83 in1010.2 mb 0.00 in0.0 mm 0.00 in0.0 mm 0.00 in0.0 mm
10:00 AM 79.3°F26.3°C 73.3°F22.9°C 82% 4.0 mph S6.4 kmh S 17.0 mph27.4 kmh 29.83 in1010.2 mb 0.00 in0.0 mm 0.00 in0.0 mm 0.00 in0.0 mm
10:02 AM 79.4°F26.3°C 73.8°F23.2°C 83% 6.0 mph S9.7 kmh S 10.0 mph16.1 kmh 29.83 in1010.2 mb 0.00 in0.0 mm 0.00 in0.0 mm 0.00 in0.0 mm
10:04 AM 79.6°F26.4°C 74.0°F23.3°C 83% 6.0 mph SSW9.7 kmh SSW 13.0 mph20.9 kmh 29.83 in1010.2 mb 0.00 in0.0 mm 0.00 in0.0 mm 0.00 in0.0 mm
10:06 AM 79.8°F26.6°C 73.8°F23.2°C 82% 7.0 mph SW11.3 kmh SW 13.0 mph20.9 kmh 29.83 in1010.2 mb 0.00 in0.0 mm 0.00 in0.0 mm 0.00 in0.0 mm
10:08 AM 79.9°F26.6°C 73.9°F23.3°C 82% 5.0 mph ENE8.0 kmh ENE 18.0 mph29.0 kmh 29.83 in1010.2 mb 0.00 in0.0 mm 0.00 in0.0 mm 0.00 in0.0 mm
10:10 AM 80.0°F26.7°C 74.0°F23.3°C 82% 10.0 mph S16.1 kmh S 18.0 mph29.0 kmh 29.83 in1010.2 mb 0.00 in0.0 mm 0.00 in0.0 mm 0.00 in0.0 mm
10:12 AM 80.0°F26.7°C 73.7°F23.2°C 81% 9.0 mph S14.5 kmh S 18.0 mph29.0 kmh 29.83 in1010.2 mb 0.00 in0.0 mm 0.00 in0.0 mm 0.00 in0.0 mm
10:14 AM 80.0°F26.7°C 73.7°F23.2°C 81% 9.0 mph S14.5 kmh S 18.0 mph29.0 kmh 29.83 in1010.2 mb 0.00 in0.0 mm 0.00 in0.0 mm 0.00 in0.0 mm
10:16 AM 80.1°F26.7°C 73.8°F23.2°C 81% 15.0 mph S24.1 kmh S 18.0 mph29.0 kmh 29.83 in1010.2 mb 0.00 in0.0 mm 0.00 in0.0 mm 0.00 in0.0 mm
10:18 AM 80.2°F26.8°C 73.5°F23.1°C 80% 8.0 mph S12.9 kmh S 18.0 mph29.0 kmh 29.83 in1010.2 mb 0.00 in0.0 mm 0.00 in0.0 mm 0.00 in0.0 mm
10:20 AM 80.2°F26.8°C 73.5°F23.1°C 80% 10.0 mph SW16.1 kmh SW 18.0 mph29.0 kmh 29.83 in1010.2 mb 0.00 in0.0 mm 0.00 in0.0 mm 0.00 in0.0 mm
10:22 AM 80.2°F26.8°C 73.5°F23.1°C 80% 6.0 mph SSW9.7 kmh SSW 18.0 mph29.0 kmh 29.83 in1010.2 mb 0.00 in0.0 mm 0.00 in0.0 mm 0.00 in0.0 mm
10:24 AM 80.2°F26.8°C 73.5°F23.1°C 80% 6.0 mph SSE9.7 kmh SSE 18.0 mph29.0 kmh 29.83 in1010.2 mb 0.00 in0.0 mm 0.00 in0.0 mm 0.00 in0.0 mm
10:26 AM 80.2°F26.8°C 73.5°F23.1°C 80% 5.0 mph S8.0 kmh S 18.0 mph29.0 kmh 29.83 in1010.2 mb 0.00 in0.0 mm 0.00 in0.0 mm 0.00 in0.0 mm
10:28 AM 80.2°F26.8°C 73.5°F23.1°C 80% 8.0 mph SSW12.9 kmh SSW 18.0 mph29.0 kmh 29.84 in1010.5 mb 0.00 in0.0 mm 0.00 in0.0 mm 0.00 in0.0 mm
10:30 AM 80.3°F26.8°C 73.9°F23.3°C 81% 5.0 mph SSE8.0 kmh SSE 18.0 mph29.0 kmh 29.83 in1010.2 mb 0.00 in0.0 mm 0.00 in0.0 mm 0.00 in0.0 mm
10:32 AM 80.3°F26.8°C 73.6°F23.1°C 80% 13.0 mph S20.9 kmh S 13.0 mph20.9 kmh 29.83 in1010.2 mb 0.00 in0.0 mm 0.00 in0.0 mm 0.00 in0.0 mm
10:34 AM 80.3°F26.8°C 73.6°F23.1°C 80% 7.0 mph S11.3 kmh S 17.0 mph27.4 kmh 29.83 in1010.2 mb 0.00 in0.0 mm 0.00 in0.0 mm 0.00 in0.0 mm
10:36 AM 80.3°F26.8°C 73.6°F23.1°C 80% 3.0 mph SE4.8 kmh SE 17.0 mph27.4 kmh 29.83 in1010.2 mb 0.00 in0.0 mm 0.00 in0.0 mm 0.00 in0.0 mm
10:38 AM 80.4°F26.9°C 73.7°F23.2°C 80% 10.0 mph SSW16.1 kmh SSW 17.0 mph27.4 kmh 29.84 in1010.5 mb 0.00 in0.0 mm 0.00 in0.0 mm 0.00 in0.0 mm
10:40 AM 80.5°F26.9°C 73.4°F23.0°C 79% 15.0 mph SSE24.1 kmh SSE 17.0 mph27.4 kmh 29.84 in1010.5 mb 0.00 in0.0 mm 0.00 in0.0 mm 0.00 in0.0 mm
10:42 AM 80.7°F27.1°C 73.6°F23.1°C 79% 4.0 mph S6.4 kmh S 17.0 mph27.4 kmh 29.84 in1010.5 mb 0.00 in0.0 mm 0.00 in0.0 mm 0.00 in0.0 mm
10:44 AM 80.8°F27.1°C 73.7°F23.2°C 79% 4.0 mph SSE6.4 kmh SSE 17.0 mph27.4 kmh 29.84 in1010.5 mb 0.00 in0.0 mm 0.00 in0.0 mm 0.00 in0.0 mm
10:46 AM 81.0°F27.2°C 73.9°F23.3°C 79% 4.0 mph S6.4 kmh S 17.0 mph27.4 kmh 29.84 in1010.5 mb 0.00 in0.0 mm 0.00 in0.0 mm 0.00 in0.0 mm
10:48 AM 81.1°F27.3°C 73.6°F23.1°C 78% 11.0 mph SSE17.7 kmh SSE 19.0 mph30.6 kmh 29.84 in1010.5 mb 0.00 in0.0 mm 0.00 in0.0 mm 0.00 in0.0 mm
10:50 AM 81.1°F27.3°C 73.6°F23.1°C 78% 6.0 mph S9.7 kmh S 19.0 mph30.6 kmh 29.84 in1010.5 mb 0.00 in0.0 mm 0.00 in0.0 mm 0.00 in0.0 mm
10:52 AM 81.0°F27.2°C 73.9°F23.3°C 79% 5.0 mph SE8.0 kmh SE 19.0 mph30.6 kmh 29.84 in1010.5 mb 0.00 in0.0 mm 0.00 in0.0 mm 0.00 in0.0 mm
10:54 AM 80.9°F27.2°C 73.8°F23.2°C 79% 10.0 mph S16.1 kmh S 19.0 mph30.6 kmh 29.84 in1010.5 mb 0.00 in0.0 mm 0.00 in0.0 mm 0.00 in0.0 mm
10:56 AM 80.9°F27.2°C 73.8°F23.2°C 79% 5.0 mph S8.0 kmh S 19.0 mph30.6 kmh 29.84 in1010.5 mb 0.00 in0.0 mm 0.00 in0.0 mm 0.00 in0.0 mm
10:58 AM 81.0°F27.2°C 74.3°F23.5°C 80% 6.0 mph SE9.7 kmh SE 19.0 mph30.6 kmh 29.84 in1010.5 mb 0.00 in0.0 mm 0.00 in0.0 mm 0.00 in0.0 mm
11:00 AM 81.1°F27.3°C 74.0°F23.3°C 79% 10.0 mph SSW16.1 kmh SSW 19.0 mph30.6 kmh 29.84 in1010.5 mb 0.00 in0.0 mm 0.00 in0.0 mm 0.00 in0.0 mm
11:02 AM 81.1°F27.3°C 73.6°F23.1°C 78% 10.0 mph SSE16.1 kmh SSE 13.0 mph20.9 kmh 29.84 in1010.5 mb 0.00 in0.0 mm 0.00 in0.0 mm 0.00 in0.0 mm
11:04 AM 81.2°F27.3°C 73.3°F22.9°C 77% 7.0 mph SSE11.3 kmh SSE 13.0 mph20.9 kmh 29.84 in1010.5 mb 0.00 in0.0 mm 0.00 in0.0 mm 0.00 in0.0 mm
11:06 AM 81.2°F27.3°C 73.3°F22.9°C 77% 4.0 mph SSW6.4 kmh SSW 15.0 mph24.1 kmh 29.84 in1010.5 mb 0.00 in0.0 mm 0.00 in0.0 mm 0.00 in0.0 mm
11:08 AM 81.2°F27.3°C 73.7°F23.2°C 78% 4.0 mph SSE6.4 kmh SSE 15.0 mph24.1 kmh 29.84 in1010.5 mb 0.00 in0.0 mm 0.00 in0.0 mm 0.00 in0.0 mm
11:10 AM 81.2°F27.3°C 73.7°F23.2°C 78% 7.0 mph S11.3 kmh S 15.0 mph24.1 kmh 29.84 in1010.5 mb 0.00 in0.0 mm 0.00 in0.0 mm 0.00 in0.0 mm
11:12 AM 81.2°F27.3°C 73.7°F23.2°C 78% 6.0 mph SSE9.7 kmh SSE 15.0 mph24.1 kmh 29.84 in1010.5 mb 0.00 in0.0 mm 0.00 in0.0 mm 0.00 in0.0 mm
11:14 AM 81.3°F27.4°C 73.8°F23.2°C 78% 6.0 mph SSE9.7 kmh SSE 15.0 mph24.1 kmh 29.84 in1010.5 mb 0.00 in0.0 mm 0.00 in0.0 mm 0.00 in0.0 mm
11:16 AM 81.4°F27.4°C 74.3°F23.5°C 79% 2.0 mph S3.2 kmh S 15.0 mph24.1 kmh 29.83 in1010.2 mb 0.00 in0.0 mm 0.00 in0.0 mm 0.00 in0.0 mm
11:18 AM 81.5°F27.5°C 74.0°F23.3°C 78% 3.0 mph S4.8 kmh S 15.0 mph24.1 kmh 29.83 in1010.2 mb 0.00 in0.0 mm 0.00 in0.0 mm 0.00 in0.0 mm
11:20 AM 81.9°F27.7°C 74.8°F23.8°C 79% 11.0 mph SSE17.7 kmh SSE 15.0 mph24.1 kmh 29.84 in1010.5 mb 0.00 in0.0 mm 0.00 in0.0 mm 0.00 in0.0 mm
11:22 AM 82.3°F27.9°C 74.4°F23.6°C 77% 8.0 mph S12.9 kmh S 15.0 mph24.1 kmh 29.84 in1010.5 mb 0.00 in0.0 mm 0.00 in0.0 mm 0.00 in0.0 mm
11:24 AM 82.6°F28.1°C 74.7°F23.7°C 77% 5.0 mph S8.0 kmh S 15.0 mph24.1 kmh 29.84 in1010.5 mb 0.00 in0.0 mm 0.00 in0.0 mm 0.00 in0.0 mm
11:26 AM 82.7°F28.2°C 74.4°F23.6°C 76% 9.0 mph SSE14.5 kmh SSE 15.0 mph24.1 kmh 29.83 in1010.2 mb 0.00 in0.0 mm 0.00 in0.0 mm 0.00 in0.0 mm
11:28 AM 82.8°F28.2°C 74.5°F23.6°C 76% 8.0 mph S12.9 kmh S 15.0 mph24.1 kmh 29.83 in1010.2 mb 0.00 in0.0 mm 0.00 in0.0 mm 0.00 in0.0 mm
11:30 AM 82.8°F28.2°C 74.1°F23.4°C 75% 9.0 mph S14.5 kmh S 15.0 mph24.1 kmh 29.83 in1010.2 mb 0.00 in0.0 mm 0.00 in0.0 mm 0.00 in0.0 mm
11:32 AM 82.7°F28.2°C 73.6°F23.1°C 74% 11.0 mph S17.7 kmh S 14.0 mph22.5 kmh 29.83 in1010.2 mb 0.00 in0.0 mm 0.00 in0.0 mm 0.00 in0.0 mm
11:34 AM 82.6°F28.1°C 74.3°F23.5°C 76% 5.0 mph SSE8.0 kmh SSE 14.0 mph22.5 kmh 29.84 in1010.5 mb 0.00 in0.0 mm 0.00 in0.0 mm 0.00 in0.0 mm
11:36 AM 82.7°F28.2°C 74.4°F23.6°C 76% 7.0 mph ESE11.3 kmh ESE 14.0 mph22.5 kmh 29.83 in1010.2 mb 0.00 in0.0 mm 0.00 in0.0 mm 0.00 in0.0 mm
11:38 AM 82.9°F28.3°C 74.6°F23.7°C 76% 3.0 mph ENE4.8 kmh ENE 14.0 mph22.5 kmh 29.84 in1010.5 mb 0.00 in0.0 mm 0.00 in0.0 mm 0.00 in0.0 mm
11:40 AM 83.1°F28.4°C 74.8°F23.8°C 76% 8.0 mph SSW12.9 kmh SSW 14.0 mph22.5 kmh 29.83 in1010.2 mb 0.00 in0.0 mm 0.00 in0.0 mm 0.00 in0.0 mm
11:42 AM 83.2°F28.4°C 74.9°F23.8°C 76% 9.0 mph SSE14.5 kmh SSE 14.0 mph22.5 kmh 29.83 in1010.2 mb 0.00 in0.0 mm 0.00 in0.0 mm 0.00 in0.0 mm
11:44 AM 83.1°F28.4°C 74.0°F23.3°C 74% 8.0 mph E12.9 kmh E 15.0 mph24.1 kmh 29.83 in1010.2 mb 0.00 in0.0 mm 0.00 in0.0 mm 0.00 in0.0 mm
11:46 AM 83.1°F28.4°C 74.4°F23.6°C 75% 4.0 mph S6.4 kmh S 15.0 mph24.1 kmh 29.83 in1010.2 mb 0.00 in0.0 mm 0.00 in0.0 mm 0.00 in0.0 mm
11:48 AM 83.1°F28.4°C 74.8°F23.8°C 76% 3.0 mph SE4.8 kmh SE 15.0 mph24.1 kmh 29.83 in1010.2 mb 0.00 in0.0 mm 0.00 in0.0 mm 0.00 in0.0 mm
11:50 AM 83.2°F28.4°C 74.9°F23.8°C 76% 5.0 mph SE8.0 kmh SE 15.0 mph24.1 kmh 29.83 in1010.2 mb 0.00 in0.0 mm 0.00 in0.0 mm 0.00 in0.0 mm
11:52 AM 83.2°F28.4°C 74.5°F23.6°C 75% 5.0 mph SSW8.0 kmh SSW 15.0 mph24.1 kmh 29.83 in1010.2 mb 0.00 in0.0 mm 0.00 in0.0 mm 0.00 in0.0 mm
11:54 AM 83.2°F28.4°C 74.5°F23.6°C 75% 6.0 mph S9.7 kmh S 15.0 mph24.1 kmh 29.83 in1010.2 mb 0.00 in0.0 mm 0.00 in0.0 mm 0.00 in0.0 mm
11:56 AM 83.2°F28.4°C 74.5°F23.6°C 75% 10.0 mph SE16.1 kmh SE 16.0 mph25.7 kmh 29.83 in1010.2 mb 0.00 in0.0 mm 0.00 in0.0 mm 0.00 in0.0 mm
11:58 AM 83.2°F28.4°C 74.5°F23.6°C 75% 8.0 mph SE12.9 kmh SE 16.0 mph25.7 kmh 29.83 in1010.2 mb 0.00 in0.0 mm 0.00 in0.0 mm 0.00 in0.0 mm
12:00 PM 83.2°F28.4°C 74.5°F23.6°C 75% 6.0 mph ESE9.7 kmh ESE 16.0 mph25.7 kmh 29.83 in1010.2 mb 0.00 in0.0 mm 0.00 in0.0 mm 0.00 in0.0 mm
12:02 PM 83.2°F28.4°C 73.7°F23.2°C 73% 9.0 mph S14.5 kmh S 12.0 mph19.3 kmh 29.83 in1010.2 mb 0.00 in0.0 mm 0.00 in0.0 mm 0.00 in0.0 mm
12:04 PM 83.1°F28.4°C 73.6°F23.1°C 73% 11.0 mph S17.7 kmh S 15.0 mph24.1 kmh 29.83 in1010.2 mb 0.00 in0.0 mm 0.00 in0.0 mm 0.00 in0.0 mm
12:06 PM 83.0°F28.3°C 73.1°F22.8°C 72% 12.0 mph S19.3 kmh S 22.0 mph35.4 kmh 29.83 in1010.2 mb 0.00 in0.0 mm 0.00 in0.0 mm 0.00 in0.0 mm
12:08 PM 83.0°F28.3°C 73.1°F22.8°C 72% 7.0 mph SE11.3 kmh SE 22.0 mph35.4 kmh 29.83 in1010.2 mb 0.00 in0.0 mm 0.00 in0.0 mm 0.00 in0.0 mm
12:10 PM 83.0°F28.3°C 73.5°F23.1°C 73% 11.0 mph SE17.7 kmh SE 22.0 mph35.4 kmh 29.83 in1010.2 mb 0.00 in0.0 mm 0.00 in0.0 mm 0.00 in0.0 mm
12:12 PM 83.1°F28.4°C 73.6°F23.1°C 73% 12.0 mph SSE19.3 kmh SSE 22.0 mph35.4 kmh 29.83 in1010.2 mb 0.00 in0.0 mm 0.00 in0.0 mm 0.00 in0.0 mm
12:14 PM 83.1°F28.4°C 73.6°F23.1°C 73% 5.0 mph SE8.0 kmh SE 22.0 mph35.4 kmh 29.82 in1009.8 mb 0.00 in0.0 mm 0.00 in0.0 mm 0.00 in0.0 mm
12:16 PM 83.4°F28.6°C 74.3°F23.5°C 74% 9.0 mph S14.5 kmh S 22.0 mph35.4 kmh 29.82 in1009.8 mb 0.00 in0.0 mm 0.00 in0.0 mm 0.00 in0.0 mm
12:18 PM 83.7°F28.7°C 73.7°F23.2°C 72% 11.0 mph S17.7 kmh S 22.0 mph35.4 kmh 29.82 in1009.8 mb 0.00 in0.0 mm 0.00 in0.0 mm 0.00 in0.0 mm
12:20 PM 83.7°F28.7°C 73.7°F23.2°C 72% 11.0 mph S17.7 kmh S 22.0 mph35.4 kmh 29.82 in1009.8 mb 0.00 in0.0 mm 0.00 in0.0 mm 0.00 in0.0 mm
12:22 PM 83.7°F28.7°C 74.1°F23.4°C 73% 6.0 mph S9.7 kmh S 22.0 mph35.4 kmh 29.82 in1009.8 mb 0.00 in0.0 mm 0.00 in0.0 mm 0.00 in0.0 mm
12:24 PM 83.8°F28.8°C 73.8°F23.2°C 72% 9.0 mph SSE14.5 kmh SSE 22.0 mph35.4 kmh 29.82 in1009.8 mb 0.00 in0.0 mm 0.00 in0.0 mm 0.00 in0.0 mm
12:26 PM 83.7°F28.7°C 74.1°F23.4°C 73% 8.0 mph S12.9 kmh S 22.0 mph35.4 kmh 29.82 in1009.8 mb 0.00 in0.0 mm 0.00 in0.0 mm 0.00 in0.0 mm
12:28 PM 83.6°F28.7°C 74.4°F23.6°C 74% 13.0 mph ESE20.9 kmh ESE 22.0 mph35.4 kmh 29.82 in1009.8 mb 0.00 in0.0 mm 0.00 in0.0 mm 0.00 in0.0 mm
12:30 PM 83.5°F28.6°C 73.9°F23.3°C 73% 6.0 mph SE9.7 kmh SE 22.0 mph35.4 kmh 29.82 in1009.8 mb 0.00 in0.0 mm 0.00 in0.0 mm 0.00 in0.0 mm
12:32 PM 83.5°F28.6°C 74.3°F23.5°C 74% 5.0 mph SSW8.0 kmh SSW 19.0 mph30.6 kmh 29.81 in1009.5 mb 0.00 in0.0 mm 0.00 in0.0 mm 0.00 in0.0 mm
12:34 PM 83.6°F28.7°C 73.6°F23.1°C 72% 12.0 mph S19.3 kmh S 19.0 mph30.6 kmh 29.82 in1009.8 mb 0.00 in0.0 mm 0.00 in0.0 mm 0.00 in0.0 mm
12:36 PM 83.7°F28.7°C 73.3°F22.9°C 71% 10.0 mph S16.1 kmh S 19.0 mph30.6 kmh 29.82 in1009.8 mb 0.00 in0.0 mm 0.00 in0.0 mm 0.00 in0.0 mm
12:38 PM 83.7°F28.7°C 73.7°F23.2°C 72% 9.0 mph SSE14.5 kmh SSE 19.0 mph30.6 kmh 29.82 in1009.8 mb 0.00 in0.0 mm 0.00 in0.0 mm 0.00 in0.0 mm
12:40 PM 83.8°F28.8°C 73.8°F23.2°C 72% 4.0 mph E6.4 kmh E 19.0 mph30.6 kmh 29.82 in1009.8 mb 0.00 in0.0 mm 0.00 in0.0 mm 0.00 in0.0 mm
12:42 PM 83.8°F28.8°C 73.8°F23.2°C 72% 10.0 mph S16.1 kmh S 19.0 mph30.6 kmh 29.81 in1009.5 mb 0.00 in0.0 mm 0.00 in0.0 mm 0.00 in0.0 mm
12:44 PM 83.8°F28.8°C 73.8°F23.2°C 72% 10.0 mph S16.1 kmh S 19.0 mph30.6 kmh 29.81 in1009.5 mb 0.00 in0.0 mm 0.00 in0.0 mm 0.00 in0.0 mm
12:46 PM 83.9°F28.8°C 74.3°F23.5°C 73% 4.0 mph S6.4 kmh S 19.0 mph30.6 kmh 29.81 in1009.5 mb 0.00 in0.0 mm 0.00 in0.0 mm 0.00 in0.0 mm
12:48 PM 84.2°F29.0°C 74.2°F23.4°C 72% 5.0 mph S8.0 kmh S 19.0 mph30.6 kmh 29.81 in1009.5 mb 0.00 in0.0 mm 0.00 in0.0 mm 0.00 in0.0 mm
12:50 PM 84.3°F29.1°C 73.9°F23.3°C 71% 10.0 mph SE16.1 kmh SE 19.0 mph30.6 kmh 29.81 in1009.5 mb 0.00 in0.0 mm 0.00 in0.0 mm 0.00 in0.0 mm
12:52 PM 84.3°F29.1°C 73.9°F23.3°C 71% 12.0 mph S19.3 kmh S 19.0 mph30.6 kmh 29.81 in1009.5 mb 0.00 in0.0 mm 0.00 in0.0 mm 0.00 in0.0 mm
12:53 PM 84.5°F29.2°C 74.1°F23.4°C 71% 9.0 mph SE14.5 kmh SE 19.0 mph30.6 kmh 29.81 in1009.5 mb 0.00 in0.0 mm 0.00 in0.0 mm 0.00 in0.0 mm
12:56 PM 84.5°F29.2°C 74.1°F23.4°C 71% 12.0 mph SSW19.3 kmh SSW 19.0 mph30.6 kmh 29.81 in1009.5 mb 0.00 in0.0 mm 0.00 in0.0 mm 0.00 in0.0 mm
12:58 PM 84.6°F29.2°C 74.2°F23.4°C 71% 14.0 mph S22.5 kmh S 19.0 mph30.6 kmh 29.80 in1009.1 mb 0.00 in0.0 mm 0.00 in0.0 mm 0.00 in0.0 mm
01:00 PM 84.7°F29.3°C 73.8°F23.2°C 70% 13.0 mph SSE20.9 kmh SSE 19.0 mph30.6 kmh 29.80 in1009.1 mb 0.00 in0.0 mm 0.00 in0.0 mm 0.00 in0.0 mm
01:02 PM 84.8°F29.3°C 73.9°F23.3°C 70% 9.0 mph ESE14.5 kmh ESE 17.0 mph27.4 kmh 29.80 in1009.1 mb 0.00 in0.0 mm 0.00 in0.0 mm 0.00 in0.0 mm
01:04 PM 84.8°F29.3°C 73.9°F23.3°C 70% 11.0 mph S17.7 kmh S 18.0 mph29.0 kmh 29.80 in1009.1 mb 0.00 in0.0 mm 0.00 in0.0 mm 0.00 in0.0 mm
01:06 PM 84.7°F29.3°C 73.8°F23.2°C 70% 8.0 mph SSE12.9 kmh SSE 27.0 mph43.5 kmh 29.80 in1009.1 mb 0.00 in0.0 mm 0.00 in0.0 mm 0.00 in0.0 mm
01:08 PM 84.5°F29.2°C 74.1°F23.4°C 71% 10.0 mph SSW16.1 kmh SSW 27.0 mph43.5 kmh 29.80 in1009.1 mb 0.00 in0.0 mm 0.00 in0.0 mm 0.00 in0.0 mm
01:09 PM 84.3°F29.1°C 73.9°F23.3°C 71% 10.0 mph SSE16.1 kmh SSE 27.0 mph43.5 kmh 29.80 in1009.1 mb 0.00 in0.0 mm 0.00 in0.0 mm 0.00 in0.0 mm
01:11 PM 84.0°F28.9°C 73.6°F23.1°C 71% 8.0 mph S12.9 kmh S 27.0 mph43.5 kmh 29.80 in1009.1 mb 0.00 in0.0 mm 0.00 in0.0 mm 0.00 in0.0 mm
01:14 PM 83.8°F28.8°C 73.4°F23.0°C 71% 10.0 mph SSW16.1 kmh SSW 27.0 mph43.5 kmh 29.80 in1009.1 mb 0.00 in0.0 mm 0.00 in0.0 mm 0.00 in0.0 mm
01:16 PM 84.0°F28.9°C 74.0°F23.3°C 72% 12.0 mph SE19.3 kmh SE 27.0 mph43.5 kmh 29.80 in1009.1 mb 0.00 in0.0 mm 0.00 in0.0 mm 0.00 in0.0 mm
01:18 PM 84.4°F29.1°C 74.4°F23.6°C 72% 5.0 mph S8.0 kmh S 27.0 mph43.5 kmh 29.80 in1009.1 mb 0.00 in0.0 mm 0.00 in0.0 mm 0.00 in0.0 mm
01:20 PM 84.5°F29.2°C 74.1°F23.4°C 71% 16.0 mph S25.7 kmh S 27.0 mph43.5 kmh 29.80 in1009.1 mb 0.00 in0.0 mm 0.00 in0.0 mm 0.00 in0.0 mm
01:22 PM 84.4°F29.1°C 74.0°F23.3°C 71% 14.0 mph SE22.5 kmh SE 27.0 mph43.5 kmh 29.80 in1009.1 mb 0.00 in0.0 mm 0.00 in0.0 mm 0.00 in0.0 mm
01:24 PM 84.3°F29.1°C 73.9°F23.3°C 71% 6.0 mph S9.7 kmh S 27.0 mph43.5 kmh 29.80 in1009.1 mb 0.00 in0.0 mm 0.00 in0.0 mm 0.00 in0.0 mm
01:26 PM 84.2°F29.0°C 74.6°F23.7°C 73% 10.0 mph SSE16.1 kmh SSE 27.0 mph43.5 kmh 29.79 in1008.8 mb 0.00 in0.0 mm 0.00 in0.0 mm 0.00 in0.0 mm
01:28 PM 84.2°F29.0°C 74.6°F23.7°C 73% 7.0 mph S11.3 kmh S 27.0 mph43.5 kmh 29.79 in1008.8 mb 0.00 in0.0 mm 0.00 in0.0 mm 0.00 in0.0 mm
01:30 PM 84.1°F28.9°C 74.1°F23.4°C 72% 6.0 mph SSE9.7 kmh SSE 27.0 mph43.5 kmh 29.79 in1008.8 mb 0.00 in0.0 mm 0.00 in0.0 mm 0.00 in0.0 mm
01:32 PM 84.1°F28.9°C 74.5°F23.6°C 73% 8.0 mph SSE12.9 kmh SSE 19.0 mph30.6 kmh 29.79 in1008.8 mb 0.00 in0.0 mm 0.00 in0.0 mm 0.00 in0.0 mm
01:34 PM 84.1°F28.9°C 74.5°F23.6°C 73% 8.0 mph SE12.9 kmh SE 19.0 mph30.6 kmh 29.79 in1008.8 mb 0.00 in0.0 mm 0.00 in0.0 mm 0.00 in0.0 mm
01:36 PM 84.1°F28.9°C 74.1°F23.4°C 72% 10.0 mph S16.1 kmh S 19.0 mph30.6 kmh 29.79 in1008.8 mb 0.00 in0.0 mm 0.00 in0.0 mm 0.00 in0.0 mm
01:38 PM 84.0°F28.9°C 74.0°F23.3°C 72% 11.0 mph SSE17.7 kmh SSE 19.0 mph30.6 kmh 29.79 in1008.8 mb 0.00 in0.0 mm 0.00 in0.0 mm 0.00 in0.0 mm
01:40 PM 84.0°F28.9°C 73.6°F23.1°C 71% 10.0 mph SE16.1 kmh SE 19.0 mph30.6 kmh 29.79 in1008.8 mb 0.00 in0.0 mm 0.00 in0.0 mm 0.00 in0.0 mm
01:42 PM 84.0°F28.9°C 73.6°F23.1°C 71% 9.0 mph S14.5 kmh S 19.0 mph30.6 kmh 29.79 in1008.8 mb 0.00 in0.0 mm 0.00 in0.0 mm 0.00 in0.0 mm
01:44 PM 84.0°F28.9°C 74.0°F23.3°C 72% 13.0 mph S20.9 kmh S 19.0 mph30.6 kmh 29.79 in1008.8 mb 0.00 in0.0 mm 0.00 in0.0 mm 0.00 in0.0 mm
01:46 PM 83.9°F28.8°C 74.3°F23.5°C 73% 8.0 mph SSW12.9 kmh SSW 19.0 mph30.6 kmh 29.78 in1008.5 mb 0.00 in0.0 mm 0.00 in0.0 mm 0.00 in0.0 mm
01:48 PM 84.1°F28.9°C 74.5°F23.6°C 73% 10.0 mph S16.1 kmh S 19.0 mph30.6 kmh 29.78 in1008.5 mb 0.00 in0.0 mm 0.00 in0.0 mm 0.00 in0.0 mm
01:50 PM 84.3°F29.1°C 74.7°F23.7°C 73% 4.0 mph S6.4 kmh S 19.0 mph30.6 kmh 29.78 in1008.5 mb 0.00 in0.0 mm 0.00 in0.0 mm 0.00 in0.0 mm
01:52 PM 84.4°F29.1°C 74.8°F23.8°C 73% 9.0 mph ESE14.5 kmh ESE 19.0 mph30.6 kmh 29.78 in1008.5 mb 0.00 in0.0 mm 0.00 in0.0 mm 0.00 in0.0 mm
01:54 PM 84.1°F28.9°C 74.1°F23.4°C 72% 9.0 mph SE14.5 kmh SE 21.0 mph33.8 kmh 29.78 in1008.5 mb 0.00 in0.0 mm 0.00 in0.0 mm 0.00 in0.0 mm
01:56 PM 84.0°F28.9°C 74.0°F23.3°C 72% 11.0 mph SW17.7 kmh SW 21.0 mph33.8 kmh 29.79 in1008.8 mb 0.00 in0.0 mm 0.00 in0.0 mm 0.00 in0.0 mm
01:58 PM 83.9°F28.8°C 73.9°F23.3°C 72% 13.0 mph S20.9 kmh S 21.0 mph33.8 kmh 29.78 in1008.5 mb 0.00 in0.0 mm 0.00 in0.0 mm 0.00 in0.0 mm
02:00 PM 83.9°F28.8°C 73.5°F23.1°C 71% 7.0 mph SSE11.3 kmh SSE 21.0 mph33.8 kmh 29.78 in1008.5 mb 0.00 in0.0 mm 0.00 in0.0 mm 0.00 in0.0 mm
02:02 PM 84.2°F29.0°C 74.6°F23.7°C 73% 11.0 mph SSE17.7 kmh SSE 12.0 mph19.3 kmh 29.79 in1008.8 mb 0.00 in0.0 mm 0.00 in0.0 mm 0.00 in0.0 mm
02:04 PM 84.5°F29.2°C 74.5°F23.6°C 72% 10.0 mph SW16.1 kmh SW 15.0 mph24.1 kmh 29.79 in1008.8 mb 0.00 in0.0 mm 0.00 in0.0 mm 0.00 in0.0 mm
02:06 PM 84.8°F29.3°C 74.8°F23.8°C 72% 13.0 mph SE20.9 kmh SE 17.0 mph27.4 kmh 29.79 in1008.8 mb 0.00 in0.0 mm 0.00 in0.0 mm 0.00 in0.0 mm
02:08 PM 84.6°F29.2°C 74.2°F23.4°C 71% 12.0 mph SE19.3 kmh SE 22.0 mph35.4 kmh 29.79 in1008.8 mb 0.00 in0.0 mm 0.00 in0.0 mm 0.00 in0.0 mm
02:10 PM 84.3°F29.1°C 73.9°F23.3°C 71% 14.0 mph SSE22.5 kmh SSE 22.0 mph35.4 kmh 29.79 in1008.8 mb 0.00 in0.0 mm 0.00 in0.0 mm 0.00 in0.0 mm
02:12 PM 83.9°F28.8°C 73.9°F23.3°C 72% 7.0 mph S11.3 kmh S 22.0 mph35.4 kmh 29.79 in1008.8 mb 0.00 in0.0 mm 0.00 in0.0 mm 0.00 in0.0 mm
02:14 PM 83.6°F28.7°C 74.0°F23.3°C 73% 7.0 mph SSW11.3 kmh SSW 22.0 mph35.4 kmh 29.79 in1008.8 mb 0.00 in0.0 mm 0.00 in0.0 mm 0.00 in0.0 mm
02:16 PM 83.4°F28.6°C 73.8°F23.2°C 73% 7.0 mph SE11.3 kmh SE 22.0 mph35.4 kmh 29.79 in1008.8 mb 0.00 in0.0 mm 0.00 in0.0 mm 0.00 in0.0 mm
02:18 PM 83.4°F28.6°C 74.3°F23.5°C 74% 8.0 mph SE12.9 kmh SE 22.0 mph35.4 kmh 29.79 in1008.8 mb 0.00 in0.0 mm 0.00 in0.0 mm 0.00 in0.0 mm
02:20 PM 83.7°F28.7°C 74.1°F23.4°C 73% 12.0 mph S19.3 kmh S 22.0 mph35.4 kmh 29.79 in1008.8 mb 0.00 in0.0 mm 0.00 in0.0 mm 0.00 in0.0 mm
02:22 PM 83.7°F28.7°C 73.7°F23.2°C 72% 13.0 mph SW20.9 kmh SW 22.0 mph35.4 kmh 29.79 in1008.8 mb 0.00 in0.0 mm 0.00 in0.0 mm 0.00 in0.0 mm
02:24 PM 83.6°F28.7°C 73.2°F22.9°C 71% 12.0 mph S19.3 kmh S 23.0 mph37.0 kmh 29.78 in1008.5 mb 0.00 in0.0 mm 0.00 in0.0 mm 0.00 in0.0 mm
02:25 PM 83.6°F28.7°C 74.0°F23.3°C 73% 11.0 mph S17.7 kmh S 23.0 mph37.0 kmh 29.78 in1008.5 mb 0.00 in0.0 mm 0.00 in0.0 mm 0.00 in0.0 mm
02:28 PM 83.7°F28.7°C 74.1°F23.4°C 73% 17.0 mph SSE27.4 kmh SSE 23.0 mph37.0 kmh 29.78 in1008.5 mb 0.00 in0.0 mm 0.00 in0.0 mm 0.00 in0.0 mm
02:30 PM 83.4°F28.6°C 73.8°F23.2°C 73% 9.0 mph SSE14.5 kmh SSE 23.0 mph37.0 kmh 29.78 in1008.5 mb 0.00 in0.0 mm 0.00 in0.0 mm 0.00 in0.0 mm
02:32 PM 83.3°F28.5°C 73.8°F23.2°C 73% 12.0 mph S19.3 kmh S 20.0 mph32.2 kmh 29.78 in1008.5 mb 0.00 in0.0 mm 0.00 in0.0 mm 0.00 in0.0 mm
02:34 PM 83.2°F28.4°C 74.1°F23.4°C 74% 10.0 mph ESE16.1 kmh ESE 20.0 mph32.2 kmh 29.78 in1008.5 mb 0.00 in0.0 mm 0.00 in0.0 mm 0.00 in0.0 mm
02:36 PM 83.0°F28.3°C 73.5°F23.1°C 73% 16.0 mph SSE25.7 kmh SSE 20.0 mph32.2 kmh 29.78 in1008.5 mb 0.00 in0.0 mm 0.00 in0.0 mm 0.00 in0.0 mm
02:38 PM 82.6°F28.1°C 73.5°F23.1°C 74% 10.0 mph SSE16.1 kmh SSE 20.0 mph32.2 kmh 29.78 in1008.5 mb 0.00 in0.0 mm 0.00 in0.0 mm 0.00 in0.0 mm
02:40 PM 82.3°F27.9°C 73.2°F22.9°C 74% 22.0 mph S35.4 kmh S 22.0 mph35.4 kmh 29.78 in1008.5 mb 0.00 in0.0 mm 0.00 in0.0 mm 0.00 in0.0 mm
02:42 PM 82.0°F27.8°C 73.3°F22.9°C 75% 10.0 mph S16.1 kmh S 29.0 mph46.7 kmh 29.77 in1008.1 mb 0.00 in0.0 mm 0.00 in0.0 mm 0.00 in0.0 mm
02:44 PM 81.8°F27.7°C 73.1°F22.8°C 75% 11.0 mph S17.7 kmh S 29.0 mph46.7 kmh 29.78 in1008.5 mb 0.00 in0.0 mm 0.00 in0.0 mm 0.00 in0.0 mm
02:46 PM 81.5°F27.5°C 72.8°F22.7°C 75% 10.0 mph ESE16.1 kmh ESE 29.0 mph46.7 kmh 29.78 in1008.5 mb 0.00 in0.0 mm 0.00 in0.0 mm 0.00 in0.0 mm
02:48 PM 81.2°F27.3°C 72.9°F22.7°C 76% 17.0 mph S27.4 kmh S 29.0 mph46.7 kmh 29.77 in1008.1 mb 0.00 in0.0 mm 0.00 in0.0 mm 0.00 in0.0 mm
02:50 PM 80.9°F27.2°C 73.0°F22.8°C 77% 4.0 mph SSW6.4 kmh SSW 29.0 mph46.7 kmh 29.77 in1008.1 mb 0.00 in0.0 mm 0.00 in0.0 mm 0.00 in0.0 mm
02:52 PM 80.8°F27.1°C 72.9°F22.7°C 77% 6.0 mph SE9.7 kmh SE 29.0 mph46.7 kmh 29.77 in1008.1 mb 0.00 in0.0 mm 0.00 in0.0 mm 0.00 in0.0 mm
02:54 PM 80.7°F27.1°C 73.2°F22.9°C 78% 8.0 mph SE12.9 kmh SE 29.0 mph46.7 kmh 29.76 in1007.8 mb 0.00 in0.0 mm 0.00 in0.0 mm 0.00 in0.0 mm
02:56 PM 80.7°F27.1°C 72.8°F22.7°C 77% 13.0 mph SE20.9 kmh SE 29.0 mph46.7 kmh 29.76 in1007.8 mb 0.00 in0.0 mm 0.00 in0.0 mm 0.00 in0.0 mm
02:58 PM 80.5°F26.9°C 72.6°F22.6°C 77% 9.0 mph SE14.5 kmh SE 29.0 mph46.7 kmh 29.76 in1007.8 mb 0.00 in0.0 mm 0.00 in0.0 mm 0.00 in0.0 mm
03:00 PM 80.4°F26.9°C 72.9°F22.7°C 78% 8.0 mph S12.9 kmh S 29.0 mph46.7 kmh 29.76 in1007.8 mb 0.00 in0.0 mm 0.00 in0.0 mm 0.00 in0.0 mm
03:02 PM 80.3°F26.8°C 72.8°F22.7°C 78% 5.0 mph S8.0 kmh S 17.0 mph27.4 kmh 29.76 in1007.8 mb 0.00 in0.0 mm 0.00 in0.0 mm 0.00 in0.0 mm
03:04 PM 80.1°F26.7°C 72.6°F22.6°C 78% 8.0 mph SW12.9 kmh SW 17.0 mph27.4 kmh 29.76 in1007.8 mb 0.00 in0.0 mm 0.00 in0.0 mm 0.00 in0.0 mm
03:06 PM 80.0°F26.7°C 72.5°F22.5°C 78% 8.0 mph SSE12.9 kmh SSE 17.0 mph27.4 kmh 29.76 in1007.8 mb 0.00 in0.0 mm 0.00 in0.0 mm 0.00 in0.0 mm
03:08 PM 79.9°F26.6°C 72.8°F22.7°C 79% 11.0 mph SSW17.7 kmh SSW 17.0 mph27.4 kmh 29.76 in1007.8 mb 0.00 in0.0 mm 0.00 in0.0 mm 0.00 in0.0 mm
03:10 PM 79.7°F26.5°C 72.6°F22.6°C 79% 9.0 mph S14.5 kmh S 18.0 mph29.0 kmh 29.76 in1007.8 mb 0.00 in0.0 mm 0.00 in0.0 mm 0.00 in0.0 mm
03:12 PM 79.6°F26.4°C 72.5°F22.5°C 79% 6.0 mph S9.7 kmh S 21.0 mph33.8 kmh 29.77 in1008.1 mb 0.00 in0.0 mm 0.00 in0.0 mm 0.00 in0.0 mm
03:14 PM 79.7°F26.5°C 72.6°F22.6°C 79% 5.0 mph SSW8.0 kmh SSW 21.0 mph33.8 kmh 29.77 in1008.1 mb 0.00 in0.0 mm 0.00 in0.0 mm 0.00 in0.0 mm
03:16 PM 79.6°F26.4°C 72.5°F22.5°C 79% 7.0 mph S11.3 kmh S 21.0 mph33.8 kmh 29.77 in1008.1 mb 0.00 in0.0 mm 0.00 in0.0 mm 0.00 in0.0 mm
03:18 PM 79.5°F26.4°C 72.4°F22.4°C 79% 8.0 mph S12.9 kmh S 21.0 mph33.8 kmh 29.77 in1008.1 mb 0.00 in0.0 mm 0.00 in0.0 mm 0.00 in0.0 mm
03:20 PM 79.4°F26.3°C 72.7°F22.6°C 80% 13.0 mph SE20.9 kmh SE 21.0 mph33.8 kmh 29.77 in1008.1 mb 0.00 in0.0 mm 0.00 in0.0 mm 0.00 in0.0 mm
03:22 PM 79.3°F26.3°C 72.2°F22.3°C 79% 11.0 mph S17.7 kmh S 21.0 mph33.8 kmh 29.77 in1008.1 mb 0.00 in0.0 mm 0.00 in0.0 mm 0.00 in0.0 mm
03:24 PM 79.1°F26.2°C 72.4°F22.4°C 80% 16.0 mph S25.7 kmh S 21.0 mph33.8 kmh 29.76 in1007.8 mb 0.00 in0.0 mm 0.00 in0.0 mm 0.00 in0.0 mm
03:26 PM 79.0°F26.1°C 72.3°F22.4°C 80% 7.0 mph S11.3 kmh S 21.0 mph33.8 kmh 29.77 in1008.1 mb 0.00 in0.0 mm 0.00 in0.0 mm 0.00 in0.0 mm
03:27 PM 78.9°F26.1°C 72.2°F22.3°C 80% 8.0 mph S12.9 kmh S 21.0 mph33.8 kmh 29.77 in1008.1 mb 0.00 in0.0 mm 0.00 in0.0 mm 0.00 in0.0 mm
03:30 PM 78.9°F26.1°C 72.2°F22.3°C 80% 8.0 mph S12.9 kmh S 21.0 mph33.8 kmh 29.77 in1008.1 mb 0.00 in0.0 mm 0.00 in0.0 mm 0.00 in0.0 mm
03:32 PM 78.9°F26.1°C 72.2°F22.3°C 80% 6.0 mph S9.7 kmh S 12.0 mph19.3 kmh 29.77 in1008.1 mb 0.00 in0.0 mm 0.00 in0.0 mm 0.00 in0.0 mm
03:34 PM 78.9°F26.1°C 72.2°F22.3°C 80% 5.0 mph S8.0 kmh S 16.0 mph25.7 kmh 29.77 in1008.1 mb 0.00 in0.0 mm 0.00 in0.0 mm 0.00 in0.0 mm
03:36 PM 78.9°F26.1°C 72.2°F22.3°C 80% 5.0 mph S8.0 kmh S 18.0 mph29.0 kmh 29.77 in1008.1 mb 0.00 in0.0 mm 0.00 in0.0 mm 0.00 in0.0 mm
03:38 PM 78.8°F26.0°C 72.1°F22.3°C 80% 9.0 mph S14.5 kmh S 18.0 mph29.0 kmh 29.77 in1008.1 mb 0.00 in0.0 mm 0.00 in0.0 mm 0.00 in0.0 mm
03:40 PM 78.7°F25.9°C 72.0°F22.2°C 80% 8.0 mph SE12.9 kmh SE 18.0 mph29.0 kmh 29.77 in1008.1 mb 0.00 in0.0 mm 0.00 in0.0 mm 0.00 in0.0 mm
03:42 PM 78.6°F25.9°C 71.9°F22.2°C 80% 6.0 mph SE9.7 kmh SE 18.0 mph29.0 kmh 29.77 in1008.1 mb 0.00 in0.0 mm 0.00 in0.0 mm 0.00 in0.0 mm
03:44 PM 78.6°F25.9°C 71.9°F22.2°C 80% 17.0 mph S27.4 kmh S 18.0 mph29.0 kmh 29.76 in1007.8 mb 0.00 in0.0 mm 0.00 in0.0 mm 0.00 in0.0 mm
03:46 PM 78.5°F25.8°C 71.8°F22.1°C 80% 7.0 mph SE11.3 kmh SE 20.0 mph32.2 kmh 29.76 in1007.8 mb 0.00 in0.0 mm 0.00 in0.0 mm 0.00 in0.0 mm
03:48 PM 78.6°F25.9°C 72.3°F22.4°C 81% 18.0 mph SSE29.0 kmh SSE 20.0 mph32.2 kmh 29.76 in1007.8 mb 0.00 in0.0 mm 0.00 in0.0 mm 0.00 in0.0 mm
03:50 PM 78.6°F25.9°C 72.3°F22.4°C 81% 8.0 mph SE12.9 kmh SE 20.0 mph32.2 kmh 29.76 in1007.8 mb 0.00 in0.0 mm 0.00 in0.0 mm 0.00 in0.0 mm
03:52 PM 78.6°F25.9°C 72.3°F22.4°C 81% 11.0 mph SSE17.7 kmh SSE 20.0 mph32.2 kmh 29.76 in1007.8 mb 0.00 in0.0 mm 0.00 in0.0 mm 0.00 in0.0 mm
03:54 PM 78.5°F25.8°C 71.8°F22.1°C 80% 5.0 mph S8.0 kmh S 20.0 mph32.2 kmh 29.75 in1007.5 mb 0.00 in0.0 mm 0.00 in0.0 mm 0.00 in0.0 mm
03:56 PM 78.5°F25.8°C 72.2°F22.3°C 81% 7.0 mph SSE11.3 kmh SSE 20.0 mph32.2 kmh 29.75 in1007.5 mb 0.00 in0.0 mm 0.00 in0.0 mm 0.00 in0.0 mm
03:58 PM 78.5°F25.8°C 72.2°F22.3°C 81% 4.0 mph S6.4 kmh S 20.0 mph32.2 kmh 29.75 in1007.5 mb 0.00 in0.0 mm 0.00 in0.0 mm 0.00 in0.0 mm
04:00 PM 78.5°F25.8°C 72.2°F22.3°C 81% 3.0 mph SE4.8 kmh SE 20.0 mph32.2 kmh 29.75 in1007.5 mb 0.00 in0.0 mm 0.00 in0.0 mm 0.00 in0.0 mm
04:02 PM 78.6°F25.9°C 72.3°F22.4°C 81% 3.0 mph ESE4.8 kmh ESE 14.0 mph22.5 kmh 29.76 in1007.8 mb 0.00 in0.0 mm 0.00 in0.0 mm 0.00 in0.0 mm
04:04 PM 78.6°F25.9°C 72.3°F22.4°C 81% 6.0 mph SW9.7 kmh SW 14.0 mph22.5 kmh 29.76 in1007.8 mb 0.00 in0.0 mm 0.00 in0.0 mm 0.00 in0.0 mm
04:05 PM 78.6°F25.9°C 72.3°F22.4°C 81% 4.0 mph S6.4 kmh S 14.0 mph22.5 kmh 29.77 in1008.1 mb 0.00 in0.0 mm 0.00 in0.0 mm 0.00 in0.0 mm
04:08 PM 78.5°F25.8°C 72.2°F22.3°C 81% 7.0 mph S11.3 kmh S 14.0 mph22.5 kmh 29.77 in1008.1 mb 0.00 in0.0 mm 0.00 in0.0 mm 0.00 in0.0 mm
04:10 PM 78.5°F25.8°C 72.2°F22.3°C 81% 6.0 mph SSE9.7 kmh SSE 14.0 mph22.5 kmh 29.77 in1008.1 mb 0.00 in0.0 mm 0.00 in0.0 mm 0.00 in0.0 mm
04:12 PM 78.5°F25.8°C 72.2°F22.3°C 81% 7.0 mph ESE11.3 kmh ESE 14.0 mph22.5 kmh 29.77 in1008.1 mb 0.00 in0.0 mm 0.00 in0.0 mm 0.00 in0.0 mm
04:14 PM 78.5°F25.8°C 72.2°F22.3°C 81% 3.0 mph SSE4.8 kmh SSE 14.0 mph22.5 kmh 29.76 in1007.8 mb 0.00 in0.0 mm 0.00 in0.0 mm 0.00 in0.0 mm
04:16 PM 78.4°F25.8°C 72.5°F22.5°C 82% Calm Calm 14.0 mph22.5 kmh 29.76 in1007.8 mb 0.00 in0.0 mm 0.00 in0.0 mm 0.00 in0.0 mm
04:18 PM 78.4°F25.8°C 72.5°F22.5°C 82% 4.0 mph E6.4 kmh E 14.0 mph22.5 kmh 29.76 in1007.8 mb 0.00 in0.0 mm 0.00 in0.0 mm 0.00 in0.0 mm
04:20 PM 78.3°F25.7°C 72.4°F22.4°C 82% 3.0 mph S4.8 kmh S 15.0 mph24.1 kmh 29.77 in1008.1 mb 0.00 in0.0 mm 0.00 in0.0 mm 0.00 in0.0 mm
04:22 PM 78.2°F25.7°C 72.3°F22.4°C 82% 5.0 mph S8.0 kmh S 15.0 mph24.1 kmh 29.77 in1008.1 mb 0.00 in0.0 mm 0.00 in0.0 mm 0.00 in0.0 mm
04:24 PM 78.2°F25.7°C 72.3°F22.4°C 82% 3.0 mph SE4.8 kmh SE 15.0 mph24.1 kmh 29.77 in1008.1 mb 0.00 in0.0 mm 0.00 in0.0 mm 0.00 in0.0 mm
04:26 PM 78.2°F25.7°C 72.3°F22.4°C 82% 4.0 mph SSE6.4 kmh SSE 15.0 mph24.1 kmh 29.77 in1008.1 mb 0.00 in0.0 mm 0.00 in0.0 mm 0.00 in0.0 mm
04:28 PM 78.2°F25.7°C 72.3°F22.4°C 82% 7.0 mph S11.3 kmh S 15.0 mph24.1 kmh 29.77 in1008.1 mb 0.00 in0.0 mm 0.00 in0.0 mm 0.00 in0.0 mm
04:30 PM 78.2°F25.7°C 72.3°F22.4°C 82% 2.0 mph SE3.2 kmh SE 15.0 mph24.1 kmh 29.77 in1008.1 mb 0.00 in0.0 mm 0.00 in0.0 mm 0.00 in0.0 mm
04:32 PM 78.2°F25.7°C 72.3°F22.4°C 82% 10.0 mph SE16.1 kmh SE 10.0 mph16.1 kmh 29.77 in1008.1 mb 0.00 in0.0 mm 0.00 in0.0 mm 0.00 in0.0 mm
04:34 PM 78.2°F25.7°C 72.3°F22.4°C 82% 6.0 mph S9.7 kmh S 12.0 mph19.3 kmh 29.77 in1008.1 mb 0.00 in0.0 mm 0.00 in0.0 mm 0.00 in0.0 mm
04:36 PM 78.2°F25.7°C 72.6°F22.6°C 83% 3.0 mph S4.8 kmh S 12.0 mph19.3 kmh 29.77 in1008.1 mb 0.00 in0.0 mm 0.00 in0.0 mm 0.00 in0.0 mm
04:38 PM 78.1°F25.6°C 72.5°F22.5°C 83% 4.0 mph SSE6.4 kmh SSE 12.0 mph19.3 kmh 29.77 in1008.1 mb 0.00 in0.0 mm 0.00 in0.0 mm 0.00 in0.0 mm
04:40 PM 78.2°F25.7°C 72.6°F22.6°C 83% 5.0 mph S8.0 kmh S 12.0 mph19.3 kmh 29.76 in1007.8 mb 0.00 in0.0 mm 0.00 in0.0 mm 0.00 in0.0 mm
04:42 PM 78.2°F25.7°C 72.6°F22.6°C 83% 7.0 mph SSE11.3 kmh SSE 12.0 mph19.3 kmh 29.76 in1007.8 mb 0.00 in0.0 mm 0.00 in0.0 mm 0.00 in0.0 mm
04:44 PM 78.2°F25.7°C 72.6°F22.6°C 83% 6.0 mph SSE9.7 kmh SSE 12.0 mph19.3 kmh 29.76 in1007.8 mb 0.00 in0.0 mm 0.00 in0.0 mm 0.00 in0.0 mm
04:46 PM 78.2°F25.7°C 72.6°F22.6°C 83% 8.0 mph SSE12.9 kmh SSE 12.0 mph19.3 kmh 29.76 in1007.8 mb 0.00 in0.0 mm 0.00 in0.0 mm 0.00 in0.0 mm
04:48 PM 78.2°F25.7°C 72.6°F22.6°C 83% 4.0 mph SE6.4 kmh SE 12.0 mph19.3 kmh 29.76 in1007.8 mb 0.00 in0.0 mm 0.00 in0.0 mm 0.00 in0.0 mm
04:50 PM 78.2°F25.7°C 72.6°F22.6°C 83% 3.0 mph SSE4.8 kmh SSE 12.0 mph19.3 kmh 29.76 in1007.8 mb 0.00 in0.0 mm 0.00 in0.0 mm 0.00 in0.0 mm
04:52 PM 78.2°F25.7°C 72.6°F22.6°C 83% 6.0 mph ESE9.7 kmh ESE 12.0 mph19.3 kmh 29.76 in1007.8 mb 0.00 in0.0 mm 0.00 in0.0 mm 0.00 in0.0 mm
04:54 PM 78.2°F25.7°C 72.6°F22.6°C 83% 4.0 mph SE6.4 kmh SE 12.0 mph19.3 kmh 29.76 in1007.8 mb 0.00 in0.0 mm 0.00 in0.0 mm 0.00 in0.0 mm
04:56 PM 78.2°F25.7°C 72.6°F22.6°C 83% 9.0 mph SSE14.5 kmh SSE 12.0 mph19.3 kmh 29.76 in1007.8 mb 0.00 in0.0 mm 0.00 in0.0 mm 0.00 in0.0 mm
04:58 PM 78.2°F25.7°C 72.6°F22.6°C 83% 2.0 mph SSE3.2 kmh SSE 12.0 mph19.3 kmh 29.75 in1007.5 mb 0.00 in0.0 mm 0.00 in0.0 mm 0.00 in0.0 mm
05:00 PM 78.2°F25.7°C 72.6°F22.6°C 83% 3.0 mph SE4.8 kmh SE 12.0 mph19.3 kmh 29.75 in1007.5 mb 0.00 in0.0 mm 0.00 in0.0 mm 0.00 in0.0 mm
05:02 PM 78.2°F25.7°C 72.6°F22.6°C 83% 4.0 mph SE6.4 kmh SE 5.0 mph8.0 kmh 29.75 in1007.5 mb 0.00 in0.0 mm 0.00 in0.0 mm 0.00 in0.0 mm
05:04 PM 78.3°F25.7°C 72.7°F22.6°C 83% 4.0 mph ESE6.4 kmh ESE 5.0 mph8.0 kmh 29.75 in1007.5 mb 0.00 in0.0 mm 0.00 in0.0 mm 0.00 in0.0 mm
05:06 PM 78.3°F25.7°C 72.7°F22.6°C 83% 1.0 mph SSE1.6 kmh SSE 5.0 mph8.0 kmh 29.75 in1007.5 mb 0.00 in0.0 mm 0.00 in0.0 mm 0.00 in0.0 mm
05:08 PM 78.3°F25.7°C 72.4°F22.4°C 82% 1.0 mph SE1.6 kmh SE 6.0 mph9.7 kmh 29.75 in1007.5 mb 0.00 in0.0 mm 0.00 in0.0 mm 0.00 in0.0 mm
05:10 PM 78.4°F25.8°C 72.8°F22.7°C 83% 1.0 mph E1.6 kmh E 8.0 mph12.9 kmh 29.75 in1007.5 mb 0.00 in0.0 mm 0.00 in0.0 mm 0.00 in0.0 mm
05:12 PM 78.4°F25.8°C 72.8°F22.7°C 83% 3.0 mph SE4.8 kmh SE 8.0 mph12.9 kmh 29.74 in1007.1 mb 0.00 in0.0 mm 0.00 in0.0 mm 0.00 in0.0 mm
05:14 PM 78.3°F25.7°C 72.7°F22.6°C 83% 4.0 mph SE6.4 kmh SE 10.0 mph16.1 kmh 29.75 in1007.5 mb 0.00 in0.0 mm 0.00 in0.0 mm 0.00 in0.0 mm
05:16 PM 78.4°F25.8°C 72.8°F22.7°C 83% 2.0 mph ESE3.2 kmh ESE 10.0 mph16.1 kmh 29.75 in1007.5 mb 0.00 in0.0 mm 0.00 in0.0 mm 0.00 in0.0 mm
05:18 PM 78.4°F25.8°C 72.8°F22.7°C 83% 3.0 mph ESE4.8 kmh ESE 10.0 mph16.1 kmh 29.76 in1007.8 mb 0.00 in0.0 mm 0.00 in0.0 mm 0.00 in0.0 mm
05:20 PM 78.4°F25.8°C 72.8°F22.7°C 83% 3.0 mph SE4.8 kmh SE 10.0 mph16.1 kmh 29.76 in1007.8 mb 0.00 in0.0 mm 0.00 in0.0 mm 0.00 in0.0 mm
05:22 PM 78.4°F25.8°C 72.8°F22.7°C 83% 1.0 mph SE1.6 kmh SE 10.0 mph16.1 kmh 29.76 in1007.8 mb 0.00 in0.0 mm 0.00 in0.0 mm 0.00 in0.0 mm
05:24 PM 78.4°F25.8°C 72.8°F22.7°C 83% 2.0 mph S3.2 kmh S 10.0 mph16.1 kmh 29.77 in1008.1 mb 0.00 in0.0 mm 0.00 in0.0 mm 0.00 in0.0 mm
05:26 PM 78.5°F25.8°C 72.6°F22.6°C 82% 1.0 mph S1.6 kmh S 10.0 mph16.1 kmh 29.77 in1008.1 mb 0.00 in0.0 mm 0.00 in0.0 mm 0.00 in0.0 mm
05:28 PM 78.5°F25.8°C 72.6°F22.6°C 82% 1.0 mph SE1.6 kmh SE 10.0 mph16.1 kmh 29.77 in1008.1 mb 0.00 in0.0 mm 0.00 in0.0 mm 0.00 in0.0 mm
05:30 PM 78.6°F25.9°C 72.7°F22.6°C 82% 3.0 mph SSE4.8 kmh SSE 10.0 mph16.1 kmh 29.78 in1008.5 mb 0.00 in0.0 mm 0.00 in0.0 mm 0.00 in0.0 mm
05:32 PM 78.7°F25.9°C 72.8°F22.7°C 82% 3.0 mph S4.8 kmh S 5.0 mph8.0 kmh 29.78 in1008.5 mb 0.00 in0.0 mm 0.00 in0.0 mm 0.00 in0.0 mm
05:34 PM 78.7°F25.9°C 72.8°F22.7°C 82% 4.0 mph SE6.4 kmh SE 5.0 mph8.0 kmh 29.78 in1008.5 mb 0.00 in0.0 mm 0.00 in0.0 mm 0.00 in0.0 mm
05:36 PM 78.8°F26.0°C 72.8°F22.7°C 82% 2.0 mph SSE3.2 kmh SSE 5.0 mph8.0 kmh 29.78 in1008.5 mb 0.00 in0.0 mm 0.00 in0.0 mm 0.00 in0.0 mm
05:38 PM 78.8°F26.0°C 72.8°F22.7°C 82% 1.0 mph ESE1.6 kmh ESE 7.0 mph11.3 kmh 29.78 in1008.5 mb 0.00 in0.0 mm 0.00 in0.0 mm 0.00 in0.0 mm
05:40 PM 78.9°F26.1°C 72.9°F22.7°C 82% 2.0 mph ESE3.2 kmh ESE 7.0 mph11.3 kmh 29.78 in1008.5 mb 0.00 in0.0 mm 0.00 in0.0 mm 0.00 in0.0 mm
05:42 PM 78.9°F26.1°C 72.9°F22.7°C 82% 3.0 mph SE4.8 kmh SE 7.0 mph11.3 kmh 29.78 in1008.5 mb 0.00 in0.0 mm 0.00 in0.0 mm 0.00 in0.0 mm
05:44 PM 78.9°F26.1°C 72.9°F22.7°C 82% 2.0 mph SE3.2 kmh SE 7.0 mph11.3 kmh 29.78 in1008.5 mb 0.00 in0.0 mm 0.00 in0.0 mm 0.00 in0.0 mm
05:46 PM 78.9°F26.1°C 72.9°F22.7°C 82% 1.0 mph SE1.6 kmh SE 8.0 mph12.9 kmh 29.78 in1008.5 mb 0.00 in0.0 mm 0.00 in0.0 mm 0.00 in0.0 mm
05:48 PM 78.9°F26.1°C 72.9°F22.7°C 82% 1.0 mph S1.6 kmh S 8.0 mph12.9 kmh 29.78 in1008.5 mb 0.00 in0.0 mm 0.00 in0.0 mm 0.00 in0.0 mm
05:50 PM 78.9°F26.1°C 72.9°F22.7°C 82% 4.0 mph SE6.4 kmh SE 8.0 mph12.9 kmh 29.78 in1008.5 mb 0.00 in0.0 mm 0.00 in0.0 mm 0.00 in0.0 mm
05:52 PM 79.0°F26.1°C 72.7°F22.6°C 81% 1.0 mph SSE1.6 kmh SSE 8.0 mph12.9 kmh 29.78 in1008.5 mb 0.00 in0.0 mm 0.00 in0.0 mm 0.00 in0.0 mm
05:54 PM 79.0°F26.1°C 72.7°F22.6°C 81% 1.0 mph E1.6 kmh E 8.0 mph12.9 kmh 29.78 in1008.5 mb 0.00 in0.0 mm 0.00 in0.0 mm 0.00 in0.0 mm
05:56 PM 79.0°F26.1°C 72.7°F22.6°C 81% 4.0 mph SE6.4 kmh SE 8.0 mph12.9 kmh 29.79 in1008.8 mb 0.00 in0.0 mm 0.00 in0.0 mm 0.00 in0.0 mm
05:58 PM 79.0°F26.1°C 72.7°F22.6°C 81% Calm Calm 8.0 mph12.9 kmh 29.79 in1008.8 mb 0.00 in0.0 mm 0.00 in0.0 mm 0.00 in0.0 mm
06:00 PM 79.0°F26.1°C 73.0°F22.8°C 82% 2.0 mph ESE3.2 kmh ESE 8.0 mph12.9 kmh 29.79 in1008.8 mb 0.00 in0.0 mm 0.00 in0.0 mm 0.00 in0.0 mm
06:02 PM 79.1°F26.2°C 72.8°F22.7°C 81% 1.0 mph ESE1.6 kmh ESE 4.0 mph6.4 kmh 29.79 in1008.8 mb 0.00 in0.0 mm 0.00 in0.0 mm 0.00 in0.0 mm
06:04 PM 79.1°F26.2°C 72.8°F22.7°C 81% 2.0 mph ESE3.2 kmh ESE 4.0 mph6.4 kmh 29.78 in1008.5 mb 0.00 in0.0 mm 0.00 in0.0 mm 0.00 in0.0 mm
06:06 PM 79.1°F26.2°C 72.8°F22.7°C 81% 2.0 mph ESE3.2 kmh ESE 4.0 mph6.4 kmh 29.78 in1008.5 mb 0.00 in0.0 mm 0.00 in0.0 mm 0.00 in0.0 mm
06:08 PM 79.1°F26.2°C 72.8°F22.7°C 81% 3.0 mph E4.8 kmh E 5.0 mph8.0 kmh 29.78 in1008.5 mb 0.00 in0.0 mm 0.00 in0.0 mm 0.00 in0.0 mm
06:10 PM 79.2°F26.2°C 72.9°F22.7°C 81% 2.0 mph E3.2 kmh E 5.0 mph8.0 kmh 29.79 in1008.8 mb 0.00 in0.0 mm 0.00 in0.0 mm 0.00 in0.0 mm
06:12 PM 79.2°F26.2°C 72.9°F22.7°C 81% 2.0 mph NE3.2 kmh NE 5.0 mph8.0 kmh 29.79 in1008.8 mb 0.00 in0.0 mm 0.00 in0.0 mm 0.00 in0.0 mm
06:14 PM 79.3°F26.3°C 73.0°F22.8°C 81% 3.0 mph NE4.8 kmh NE 5.0 mph8.0 kmh 29.79 in1008.8 mb 0.00 in0.0 mm 0.00 in0.0 mm 0.00 in0.0 mm
06:16 PM 79.2°F26.2°C 72.9°F22.7°C 81% 4.0 mph ENE6.4 kmh ENE 5.0 mph8.0 kmh 29.79 in1008.8 mb 0.00 in0.0 mm 0.00 in0.0 mm 0.00 in0.0 mm
06:18 PM 79.3°F26.3°C 73.0°F22.8°C 81% 1.0 mph ENE1.6 kmh ENE 5.0 mph8.0 kmh 29.79 in1008.8 mb 0.00 in0.0 mm 0.00 in0.0 mm 0.00 in0.0 mm
06:20 PM 79.3°F26.3°C 73.0°F22.8°C 81% 4.0 mph ENE6.4 kmh ENE 5.0 mph8.0 kmh 29.79 in1008.8 mb 0.00 in0.0 mm 0.00 in0.0 mm 0.00 in0.0 mm
06:22 PM 79.3°F26.3°C 73.0°F22.8°C 81% 3.0 mph E4.8 kmh E 5.0 mph8.0 kmh 29.79 in1008.8 mb 0.00 in0.0 mm 0.00 in0.0 mm 0.00 in0.0 mm
06:24 PM 79.3°F26.3°C 73.0°F22.8°C 81% 2.0 mph E3.2 kmh E 5.0 mph8.0 kmh 29.79 in1008.8 mb 0.00 in0.0 mm 0.00 in0.0 mm 0.00 in0.0 mm
06:26 PM 79.2°F26.2°C 72.9°F22.7°C 81% 2.0 mph E3.2 kmh E 5.0 mph8.0 kmh 29.80 in1009.1 mb 0.00 in0.0 mm 0.00 in0.0 mm 0.00 in0.0 mm
06:28 PM 79.3°F26.3°C 73.0°F22.8°C 81% 2.0 mph E3.2 kmh E 5.0 mph8.0 kmh 29.80 in1009.1 mb 0.00 in0.0 mm 0.00 in0.0 mm 0.00 in0.0 mm
06:30 PM 79.3°F26.3°C 73.0°F22.8°C 81% 1.0 mph ENE1.6 kmh ENE 5.0 mph8.0 kmh 29.80 in1009.1 mb 0.00 in0.0 mm 0.00 in0.0 mm 0.00 in0.0 mm
06:32 PM 79.2°F26.2°C 72.9°F22.7°C 81% 1.0 mph ENE1.6 kmh ENE 5.0 mph8.0 kmh 29.80 in1009.1 mb 0.00 in0.0 mm 0.00 in0.0 mm 0.00 in0.0 mm
06:34 PM 79.3°F26.3°C 73.0°F22.8°C 81% 2.0 mph E3.2 kmh E 5.0 mph8.0 kmh 29.81 in1009.5 mb 0.00 in0.0 mm 0.00 in0.0 mm 0.00 in0.0 mm
06:36 PM 79.3°F26.3°C 73.0°F22.8°C 81% 2.0 mph ENE3.2 kmh ENE 5.0 mph8.0 kmh 29.81 in1009.5 mb 0.00 in0.0 mm 0.00 in0.0 mm 0.00 in0.0 mm
06:38 PM 79.4°F26.3°C 73.1°F22.8°C 81% 1.0 mph ENE1.6 kmh ENE 5.0 mph8.0 kmh 29.81 in1009.5 mb 0.00 in0.0 mm 0.00 in0.0 mm 0.00 in0.0 mm
06:40 PM 79.4°F26.3°C 73.1°F22.8°C 81% 2.0 mph ENE3.2 kmh ENE 5.0 mph8.0 kmh 29.81 in1009.5 mb 0.00 in0.0 mm 0.00 in0.0 mm 0.00 in0.0 mm
06:42 PM 79.4°F26.3°C 72.7°F22.6°C 80% 2.0 mph ENE3.2 kmh ENE 5.0 mph8.0 kmh 29.81 in1009.5 mb 0.00 in0.0 mm 0.00 in0.0 mm 0.00 in0.0 mm
06:44 PM 79.4°F26.3°C 72.7°F22.6°C 80% 3.0 mph ENE4.8 kmh ENE 5.0 mph8.0 kmh 29.81 in1009.5 mb 0.00 in0.0 mm 0.00 in0.0 mm 0.00 in0.0 mm
06:46 PM 79.4°F26.3°C 72.7°F22.6°C 80% 2.0 mph ENE3.2 kmh ENE 5.0 mph8.0 kmh 29.81 in1009.5 mb 0.00 in0.0 mm 0.00 in0.0 mm 0.00 in0.0 mm
06:48 PM 79.4°F26.3°C 72.7°F22.6°C 80% 3.0 mph ENE4.8 kmh ENE 5.0 mph8.0 kmh 29.81 in1009.5 mb 0.00 in0.0 mm 0.00 in0.0 mm 0.00 in0.0 mm
06:50 PM 79.4°F26.3°C 72.7°F22.6°C 80% 1.0 mph ENE1.6 kmh ENE 5.0 mph8.0 kmh 29.81 in1009.5 mb 0.00 in0.0 mm 0.00 in0.0 mm 0.00 in0.0 mm
06:52 PM 79.4°F26.3°C 72.7°F22.6°C 80% 3.0 mph NE4.8 kmh NE 5.0 mph8.0 kmh 29.81 in1009.5 mb 0.00 in0.0 mm 0.00 in0.0 mm 0.00 in0.0 mm
06:54 PM 79.4°F26.3°C 73.1°F22.8°C 81% 1.0 mph NNE1.6 kmh NNE 5.0 mph8.0 kmh 29.81 in1009.5 mb 0.00 in0.0 mm 0.00 in0.0 mm 0.00 in0.0 mm
06:56 PM 79.4°F26.3°C 73.1°F22.8°C 81% 2.0 mph NNE3.2 kmh NNE 5.0 mph8.0 kmh 29.82 in1009.8 mb 0.00 in0.0 mm 0.00 in0.0 mm 0.00 in0.0 mm
06:58 PM 79.3°F26.3°C 73.0°F22.8°C 81% 3.0 mph NE4.8 kmh NE 5.0 mph8.0 kmh 29.82 in1009.8 mb 0.00 in0.0 mm 0.00 in0.0 mm 0.00 in0.0 mm
07:00 PM 79.2°F26.2°C 72.9°F22.7°C 81% 3.0 mph NE4.8 kmh NE 6.0 mph9.7 kmh 29.82 in1009.8 mb 0.00 in0.0 mm 0.00 in0.0 mm 0.00 in0.0 mm
07:02 PM 78.9°F26.1°C 71.5°F21.9°C 78% 3.0 mph E4.8 kmh E 13.0 mph20.9 kmh 29.83 in1010.2 mb 0.00 in0.0 mm 0.00 in0.0 mm 0.00 in0.0 mm
07:04 PM 78.1°F25.6°C 68.4°F20.2°C 72% 4.0 mph NE6.4 kmh NE 13.0 mph20.9 kmh 29.83 in1010.2 mb 0.00 in0.0 mm 0.00 in0.0 mm 0.00 in0.0 mm
07:06 PM 77.1°F25.1°C 67.0°F19.4°C 71% 9.0 mph N14.5 kmh N 13.0 mph20.9 kmh 29.83 in1010.2 mb 0.00 in0.0 mm 0.00 in0.0 mm 0.00 in0.0 mm
07:07 PM 76.0°F24.4°C 65.9°F18.8°C 71% 8.0 mph N12.9 kmh N 13.0 mph20.9 kmh 29.83 in1010.2 mb 0.00 in0.0 mm 0.00 in0.0 mm 0.00 in0.0 mm
07:10 PM 75.0°F23.9°C 65.4°F18.6°C 72% 16.0 mph NE25.7 kmh NE 16.0 mph25.7 kmh 29.83 in1010.2 mb 0.00 in0.0 mm 0.00 in0.0 mm 0.00 in0.0 mm
07:12 PM 73.8°F23.2°C 64.6°F18.1°C 73% 8.0 mph NNE12.9 kmh NNE 16.0 mph25.7 kmh 29.83 in1010.2 mb 0.00 in0.0 mm 0.00 in0.0 mm 0.00 in0.0 mm
07:14 PM 73.2°F22.9°C 64.4°F18.0°C 74% 6.0 mph NE9.7 kmh NE 16.0 mph25.7 kmh 29.83 in1010.2 mb 0.00 in0.0 mm 0.00 in0.0 mm 0.00 in0.0 mm
07:16 PM 72.5°F22.5°C 64.1°F17.8°C 75% 6.0 mph NE9.7 kmh NE 16.0 mph25.7 kmh 29.83 in1010.2 mb 0.00 in0.0 mm 0.00 in0.0 mm 0.00 in0.0 mm
07:18 PM 72.1°F22.3°C 63.8°F17.7°C 75% 4.0 mph NE6.4 kmh NE 16.0 mph25.7 kmh 29.84 in1010.5 mb 0.00 in0.0 mm 0.00 in0.0 mm 0.00 in0.0 mm
07:20 PM 71.9°F22.2°C 63.9°F17.7°C 76% 13.0 mph NE20.9 kmh NE 16.0 mph25.7 kmh 29.84 in1010.5 mb 0.00 in0.0 mm 0.00 in0.0 mm 0.00 in0.0 mm
07:22 PM 71.5°F21.9°C 63.6°F17.6°C 76% 7.0 mph NNE11.3 kmh NNE 16.0 mph25.7 kmh 29.83 in1010.2 mb 0.00 in0.0 mm 0.00 in0.0 mm 0.00 in0.0 mm
07:24 PM 71.3°F21.8°C 63.4°F17.4°C 76% 3.0 mph NE4.8 kmh NE 16.0 mph25.7 kmh 29.83 in1010.2 mb 0.00 in0.0 mm 0.00 in0.0 mm 0.00 in0.0 mm
07:26 PM 71.1°F21.7°C 63.2°F17.3°C 76% 1.0 mph NW1.6 kmh NW 16.0 mph25.7 kmh 29.83 in1010.2 mb 0.00 in0.0 mm 0.00 in0.0 mm 0.00 in0.0 mm
07:28 PM 70.9°F21.6°C 63.0°F17.2°C 76% 4.0 mph E6.4 kmh E 16.0 mph25.7 kmh 29.83 in1010.2 mb 0.00 in0.0 mm 0.00 in0.0 mm 0.00 in0.0 mm
07:30 PM 70.8°F21.6°C 62.9°F17.2°C 76% 1.0 mph E1.6 kmh E 16.0 mph25.7 kmh 29.83 in1010.2 mb 0.00 in0.0 mm 0.00 in0.0 mm 0.00 in0.0 mm
07:32 PM 70.7°F21.5°C 62.8°F17.1°C 76% 4.0 mph NNE6.4 kmh NNE 8.0 mph12.9 kmh 29.83 in1010.2 mb 0.00 in0.0 mm 0.00 in0.0 mm 0.00 in0.0 mm
07:34 PM 70.7°F21.5°C 62.8°F17.1°C 76% 11.0 mph E17.7 kmh E 15.0 mph24.1 kmh 29.83 in1010.2 mb 0.00 in0.0 mm 0.00 in0.0 mm 0.00 in0.0 mm
07:36 PM 70.6°F21.4°C 62.7°F17.1°C 76% 4.0 mph N6.4 kmh N 15.0 mph24.1 kmh 29.83 in1010.2 mb 0.00 in0.0 mm 0.00 in0.0 mm 0.00 in0.0 mm
07:38 PM 70.5°F21.4°C 62.6°F17.0°C 76% 5.0 mph E8.0 kmh E 15.0 mph24.1 kmh 29.83 in1010.2 mb 0.00 in0.0 mm 0.00 in0.0 mm 0.00 in0.0 mm
07:40 PM 70.4°F21.3°C 62.5°F16.9°C 76% 11.0 mph NE17.7 kmh NE 15.0 mph24.1 kmh 29.82 in1009.8 mb 0.00 in0.0 mm 0.00 in0.0 mm 0.00 in0.0 mm
07:42 PM 70.4°F21.3°C 62.5°F16.9°C 76% 3.0 mph NNE4.8 kmh NNE 15.0 mph24.1 kmh 29.83 in1010.2 mb 0.00 in0.0 mm 0.00 in0.0 mm 0.00 in0.0 mm
07:44 PM 70.3°F21.3°C 62.4°F16.9°C 76% 9.0 mph E14.5 kmh E 15.0 mph24.1 kmh 29.83 in1010.2 mb 0.00 in0.0 mm 0.00 in0.0 mm 0.00 in0.0 mm
07:46 PM 70.2°F21.2°C 62.3°F16.8°C 76% 15.0 mph NNE24.1 kmh NNE 15.0 mph24.1 kmh 29.83 in1010.2 mb 0.00 in0.0 mm 0.00 in0.0 mm 0.00 in0.0 mm
07:48 PM 70.1°F21.2°C 62.6°F17.0°C 77% 4.0 mph N6.4 kmh N 21.0 mph33.8 kmh 29.83 in1010.2 mb 0.00 in0.0 mm 0.00 in0.0 mm 0.00 in0.0 mm
07:50 PM 70.0°F21.1°C 62.5°F16.9°C 77% 6.0 mph NE9.7 kmh NE 21.0 mph33.8 kmh 29.83 in1010.2 mb 0.00 in0.0 mm 0.00 in0.0 mm 0.00 in0.0 mm
07:52 PM 69.8°F21.0°C 62.3°F16.8°C 77% 5.0 mph NE8.0 kmh NE 21.0 mph33.8 kmh 29.84 in1010.5 mb 0.00 in0.0 mm 0.00 in0.0 mm 0.00 in0.0 mm
07:54 PM 69.7°F20.9°C 62.5°F16.9°C 78% 6.0 mph NE9.7 kmh NE 21.0 mph33.8 kmh 29.83 in1010.2 mb 0.00 in0.0 mm 0.00 in0.0 mm 0.00 in0.0 mm
07:56 PM 69.5°F20.8°C 62.4°F16.9°C 78% 9.0 mph N14.5 kmh N 21.0 mph33.8 kmh 29.83 in1010.2 mb 0.00 in0.0 mm 0.00 in0.0 mm 0.00 in0.0 mm
07:58 PM 69.2°F20.7°C 62.4°F16.9°C 79% 10.0 mph ENE16.1 kmh ENE 21.0 mph33.8 kmh 29.83 in1010.2 mb 0.00 in0.0 mm 0.00 in0.0 mm 0.00 in0.0 mm
08:00 PM 69.0°F20.6°C 62.2°F16.8°C 79% 11.0 mph ENE17.7 kmh ENE 21.0 mph33.8 kmh 29.83 in1010.2 mb 0.00 in0.0 mm 0.00 in0.0 mm 0.00 in0.0 mm
08:02 PM 68.8°F20.4°C 62.4°F16.9°C 80% 5.0 mph NNE8.0 kmh NNE 15.0 mph24.1 kmh 29.83 in1010.2 mb 0.00 in0.0 mm 0.00 in0.0 mm 0.00 in0.0 mm
08:04 PM 68.6°F20.3°C 62.2°F16.8°C 80% 9.0 mph NE14.5 kmh NE 15.0 mph24.1 kmh 29.83 in1010.2 mb 0.00 in0.0 mm 0.00 in0.0 mm 0.00 in0.0 mm
08:06 PM 68.6°F20.3°C 62.2°F16.8°C 80% 10.0 mph NE16.1 kmh NE 15.0 mph24.1 kmh 29.83 in1010.2 mb 0.00 in0.0 mm 0.00 in0.0 mm 0.00 in0.0 mm
08:08 PM 68.5°F20.3°C 62.5°F16.9°C 81% 1.0 mph N1.6 kmh N 15.0 mph24.1 kmh 29.83 in1010.2 mb 0.00 in0.0 mm 0.00 in0.0 mm 0.00 in0.0 mm
08:10 PM 68.5°F20.3°C 62.5°F16.9°C 81% 2.0 mph NE3.2 kmh NE 15.0 mph24.1 kmh 29.84 in1010.5 mb 0.00 in0.0 mm 0.00 in0.0 mm 0.00 in0.0 mm
08:12 PM 68.5°F20.3°C 62.5°F16.9°C 81% 5.0 mph NNW8.0 kmh NNW 15.0 mph24.1 kmh 29.84 in1010.5 mb 0.00 in0.0 mm 0.00 in0.0 mm 0.00 in0.0 mm
08:14 PM 68.5°F20.3°C 62.1°F16.7°C 80% 3.0 mph NE4.8 kmh NE 15.0 mph24.1 kmh 29.84 in1010.5 mb 0.00 in0.0 mm 0.00 in0.0 mm 0.00 in0.0 mm
08:16 PM 68.5°F20.3°C 62.1°F16.7°C 80% 2.0 mph N3.2 kmh N 15.0 mph24.1 kmh 29.85 in1010.8 mb 0.00 in0.0 mm 0.00 in0.0 mm 0.00 in0.0 mm
08:18 PM 68.6°F20.3°C 62.2°F16.8°C 80% 2.0 mph ENE3.2 kmh ENE 15.0 mph24.1 kmh 29.85 in1010.8 mb 0.00 in0.0 mm 0.00 in0.0 mm 0.00 in0.0 mm
08:20 PM 68.6°F20.3°C 62.2°F16.8°C 80% 6.0 mph NE9.7 kmh NE 15.0 mph24.1 kmh 29.86 in1011.2 mb 0.00 in0.0 mm 0.00 in0.0 mm 0.00 in0.0 mm
08:22 PM 68.7°F20.4°C 62.3°F16.8°C 80% 7.0 mph NNE11.3 kmh NNE 15.0 mph24.1 kmh 29.86 in1011.2 mb 0.00 in0.0 mm 0.00 in0.0 mm 0.00 in0.0 mm
08:24 PM 68.7°F20.4°C 62.3°F16.8°C 80% 2.0 mph NE3.2 kmh NE 15.0 mph24.1 kmh 29.86 in1011.2 mb 0.00 in0.0 mm 0.00 in0.0 mm 0.00 in0.0 mm
08:26 PM 68.8°F20.4°C 62.0°F16.7°C 79% 3.0 mph NE4.8 kmh NE 15.0 mph24.1 kmh 29.86 in1011.2 mb 0.00 in0.0 mm 0.00 in0.0 mm 0.00 in0.0 mm
08:28 PM 68.9°F20.5°C 62.1°F16.7°C 79% 1.0 mph NE1.6 kmh NE 15.0 mph24.1 kmh 29.86 in1011.2 mb 0.00 in0.0 mm 0.00 in0.0 mm 0.00 in0.0 mm
08:30 PM 69.0°F20.6°C 62.2°F16.8°C 79% Calm Calm 15.0 mph24.1 kmh 29.86 in1011.2 mb 0.00 in0.0 mm 0.00 in0.0 mm 0.00 in0.0 mm
08:32 PM 69.0°F20.6°C 61.9°F16.6°C 78% 1.0 mph SW1.6 kmh SW 4.0 mph6.4 kmh 29.87 in1011.5 mb 0.00 in0.0 mm 0.00 in0.0 mm 0.00 in0.0 mm
08:34 PM 69.1°F20.6°C 62.0°F16.7°C 78% 3.0 mph NNE4.8 kmh NNE 5.0 mph8.0 kmh 29.87 in1011.5 mb 0.00 in0.0 mm 0.00 in0.0 mm 0.00 in0.0 mm
08:36 PM 69.1°F20.6°C 62.0°F16.7°C 78% Calm Calm 5.0 mph8.0 kmh 29.87 in1011.5 mb 0.00 in0.0 mm 0.00 in0.0 mm 0.00 in0.0 mm
08:38 PM 69.2°F20.7°C 62.1°F16.7°C 78% 2.0 mph NNW3.2 kmh NNW 5.0 mph8.0 kmh 29.87 in1011.5 mb 0.00 in0.0 mm 0.00 in0.0 mm 0.00 in0.0 mm
08:40 PM 69.2°F20.7°C 62.1°F16.7°C 78% 1.0 mph NE1.6 kmh NE 5.0 mph8.0 kmh 29.87 in1011.5 mb 0.00 in0.0 mm 0.00 in0.0 mm 0.00 in0.0 mm
08:42 PM 69.2°F20.7°C 61.7°F16.5°C 77% 4.0 mph NE6.4 kmh NE 8.0 mph12.9 kmh 29.87 in1011.5 mb 0.00 in0.0 mm 0.00 in0.0 mm 0.00 in0.0 mm
08:44 PM 69.3°F20.7°C 61.8°F16.6°C 77% 4.0 mph NE6.4 kmh NE 8.0 mph12.9 kmh 29.87 in1011.5 mb 0.00 in0.0 mm 0.00 in0.0 mm 0.00 in0.0 mm
08:46 PM 69.4°F20.8°C 62.3°F16.8°C 78% 4.0 mph NE6.4 kmh NE 8.0 mph12.9 kmh 29.86 in1011.2 mb 0.00 in0.0 mm 0.00 in0.0 mm 0.00 in0.0 mm
08:48 PM 69.3°F20.7°C 62.5°F16.9°C 79% 1.0 mph N1.6 kmh N 8.0 mph12.9 kmh 29.87 in1011.5 mb 0.00 in0.0 mm 0.00 in0.0 mm 0.00 in0.0 mm
08:50 PM 69.2°F20.7°C 62.4°F16.9°C 79% 3.0 mph NE4.8 kmh NE 10.0 mph16.1 kmh 29.87 in1011.5 mb 0.00 in0.0 mm 0.00 in0.0 mm 0.00 in0.0 mm
08:52 PM 69.0°F20.6°C 62.9°F17.2°C 81% 1.0 mph NW1.6 kmh NW 10.0 mph16.1 kmh 29.86 in1011.2 mb 0.03 in0.8 mm 0.90 in22.9 mm 0.03 in0.8 mm
08:54 PM 68.7°F20.4°C 63.0°F17.2°C 82% 7.0 mph N11.3 kmh N 10.0 mph16.1 kmh 29.86 in1011.2 mb 0.07 in1.8 mm 1.20 in30.5 mm 0.07 in1.8 mm
08:56 PM 68.2°F20.1°C 62.9°F17.2°C 83% 2.0 mph NNE3.2 kmh NNE 11.0 mph17.7 kmh 29.86 in1011.2 mb 0.08 in2.0 mm 0.30 in7.6 mm 0.08 in2.0 mm
08:58 PM 67.7°F19.8°C 62.7°F17.1°C 84% 5.0 mph NW8.0 kmh NW 11.0 mph17.7 kmh 29.88 in1011.9 mb 0.09 in2.3 mm 0.30 in7.6 mm 0.09 in2.3 mm
09:00 PM 67.3°F19.6°C 62.6°F17.0°C 85% 3.0 mph SW4.8 kmh SW 11.0 mph17.7 kmh 29.90 in1012.5 mb 0.09 in2.3 mm 0.00 in0.0 mm 0.09 in2.3 mm
09:02 PM 67.1°F19.5°C 63.1°F17.3°C 87% 4.0 mph WSW6.4 kmh WSW 9.0 mph14.5 kmh 29.94 in1013.9 mb 0.09 in2.3 mm 0.00 in0.0 mm 0.09 in2.3 mm
09:04 PM 66.7°F19.3°C 62.7°F17.1°C 87% 8.0 mph W12.9 kmh W 15.0 mph24.1 kmh 29.95 in1014.2 mb 0.09 in2.3 mm 0.00 in0.0 mm 0.09 in2.3 mm
09:06 PM 66.5°F19.2°C 62.8°F17.1°C 88% 8.0 mph NW12.9 kmh NW 15.0 mph24.1 kmh 29.94 in1013.9 mb 0.12 in3.0 mm 0.90 in22.9 mm 0.12 in3.0 mm
09:08 PM 66.3°F19.1°C 62.6°F17.0°C 88% 9.0 mph N14.5 kmh N 15.0 mph24.1 kmh 29.93 in1013.5 mb 0.16 in4.1 mm 1.20 in30.5 mm 0.16 in4.1 mm
09:10 PM 66.0°F18.9°C 62.0°F16.7°C 87% 6.0 mph NNW9.7 kmh NNW 15.0 mph24.1 kmh 29.93 in1013.5 mb 0.17 in4.3 mm 0.30 in7.6 mm 0.17 in4.3 mm
09:12 PM 66.1°F18.9°C 62.5°F16.9°C 88% 11.0 mph NW17.7 kmh NW 15.0 mph24.1 kmh 29.94 in1013.9 mb 0.18 in4.6 mm 0.30 in7.6 mm 0.18 in4.6 mm
09:14 PM 65.8°F18.8°C 62.2°F16.8°C 88% 10.0 mph N16.1 kmh N 16.0 mph25.7 kmh 29.93 in1013.5 mb 0.18 in4.6 mm 0.00 in0.0 mm 0.18 in4.6 mm
09:16 PM 65.6°F18.7°C 62.0°F16.7°C 88% 13.0 mph N20.9 kmh N 16.0 mph25.7 kmh 29.92 in1013.2 mb 0.18 in4.6 mm 0.00 in0.0 mm 0.18 in4.6 mm
09:18 PM 65.5°F18.6°C 62.2°F16.8°C 89% 13.0 mph WNW20.9 kmh WNW 17.0 mph27.4 kmh 29.93 in1013.5 mb 0.18 in4.6 mm 0.00 in0.0 mm 0.18 in4.6 mm
09:20 PM 65.3°F18.5°C 62.0°F16.7°C 89% 14.0 mph NW22.5 kmh NW 17.0 mph27.4 kmh 29.93 in1013.5 mb 0.18 in4.6 mm 0.00 in0.0 mm 0.18 in4.6 mm
09:22 PM 65.0°F18.3°C 61.7°F16.5°C 89% 13.0 mph WNW20.9 kmh WNW 17.0 mph27.4 kmh 29.93 in1013.5 mb 0.18 in4.6 mm 0.00 in0.0 mm 0.18 in4.6 mm
09:24 PM 64.9°F18.3°C 61.9°F16.6°C 90% 10.0 mph NW16.1 kmh NW 17.0 mph27.4 kmh 29.92 in1013.2 mb 0.18 in4.6 mm 0.00 in0.0 mm 0.18 in4.6 mm
09:26 PM 64.7°F18.2°C 61.7°F16.5°C 90% 14.0 mph N22.5 kmh N 17.0 mph27.4 kmh 29.90 in1012.5 mb 0.18 in4.6 mm 0.00 in0.0 mm 0.18 in4.6 mm
09:28 PM 64.6°F18.1°C 61.6°F16.4°C 90% 11.0 mph NNW17.7 kmh NNW 17.0 mph27.4 kmh 29.90 in1012.5 mb 0.18 in4.6 mm 0.00 in0.0 mm 0.18 in4.6 mm
09:30 PM 64.6°F18.1°C 61.6°F16.4°C 90% 6.0 mph NNW9.7 kmh NNW 17.0 mph27.4 kmh 29.90 in1012.5 mb 0.18 in4.6 mm 0.00 in0.0 mm 0.18 in4.6 mm
09:32 PM 64.7°F18.2°C 61.7°F16.5°C 90% 5.0 mph N8.0 kmh N 18.0 mph29.0 kmh 29.89 in1012.2 mb 0.18 in4.6 mm 0.00 in0.0 mm 0.18 in4.6 mm
09:34 PM 64.7°F18.2°C 61.7°F16.5°C 90% 13.0 mph NNW20.9 kmh NNW 18.0 mph29.0 kmh 29.89 in1012.2 mb 0.18 in4.6 mm 0.00 in0.0 mm 0.18 in4.6 mm
09:36 PM 64.7°F18.2°C 61.7°F16.5°C 90% 7.0 mph NE11.3 kmh NE 18.0 mph29.0 kmh 29.88 in1011.9 mb 0.18 in4.6 mm 0.00 in0.0 mm 0.18 in4.6 mm
09:38 PM 64.7°F18.2°C 61.7°F16.5°C 90% 14.0 mph N22.5 kmh N 18.0 mph29.0 kmh 29.88 in1011.9 mb 0.18 in4.6 mm 0.00 in0.0 mm 0.18 in4.6 mm
09:40 PM 64.6°F18.1°C 61.9°F16.6°C 91% 4.0 mph NE6.4 kmh NE 18.0 mph29.0 kmh 29.88 in1011.9 mb 0.19 in4.8 mm 0.30 in7.6 mm 0.19 in4.8 mm
09:42 PM 64.5°F18.1°C 61.8°F16.6°C 91% 5.0 mph N8.0 kmh N 18.0 mph29.0 kmh 29.88 in1011.9 mb 0.19 in4.8 mm 0.00 in0.0 mm 0.19 in4.8 mm
09:44 PM 64.4°F18.0°C 61.7°F16.5°C 91% 3.0 mph NE4.8 kmh NE 18.0 mph29.0 kmh 29.89 in1012.2 mb 0.19 in4.8 mm 0.00 in0.0 mm 0.19 in4.8 mm
09:46 PM 64.3°F17.9°C 61.6°F16.4°C 91% 5.0 mph NNW8.0 kmh NNW 18.0 mph29.0 kmh 29.89 in1012.2 mb 0.19 in4.8 mm 0.00 in0.0 mm 0.19 in4.8 mm
09:48 PM 64.3°F17.9°C 61.6°F16.4°C 91% 6.0 mph NNW9.7 kmh NNW 18.0 mph29.0 kmh 29.90 in1012.5 mb 0.20 in5.1 mm 0.30 in7.6 mm 0.20 in5.1 mm
09:50 PM 64.3°F17.9°C 61.6°F16.4°C 91% 4.0 mph NW6.4 kmh NW 18.0 mph29.0 kmh 29.91 in1012.9 mb 0.21 in5.3 mm 0.30 in7.6 mm 0.21 in5.3 mm
09:52 PM 64.3°F17.9°C 61.6°F16.4°C 91% 9.0 mph NW14.5 kmh NW 18.0 mph29.0 kmh 29.91 in1012.9 mb 0.23 in5.8 mm 0.60 in15.2 mm 0.23 in5.8 mm
09:54 PM 64.3°F17.9°C 61.6°F16.4°C 91% 4.0 mph NW6.4 kmh NW 18.0 mph29.0 kmh 29.92 in1013.2 mb 0.24 in6.1 mm 0.30 in7.6 mm 0.24 in6.1 mm
09:56 PM 64.2°F17.9°C 61.8°F16.6°C 92% 6.0 mph NNW9.7 kmh NNW 18.0 mph29.0 kmh 29.91 in1012.9 mb 0.26 in6.6 mm 0.60 in15.2 mm 0.26 in6.6 mm
09:58 PM 64.1°F17.8°C 61.7°F16.5°C 92% 11.0 mph NW17.7 kmh NW 18.0 mph29.0 kmh 29.91 in1012.9 mb 0.28 in7.1 mm 0.60 in15.2 mm 0.28 in7.1 mm
10:00 PM 64.0°F17.8°C 61.6°F16.4°C 92% 10.0 mph NW16.1 kmh NW 18.0 mph29.0 kmh 29.91 in1012.9 mb 0.30 in7.6 mm 0.02 in0.5 mm 0.30 in7.6 mm
10:02 PM 63.9°F17.7°C 61.5°F16.4°C 92% 7.0 mph NW11.3 kmh NW 11.0 mph17.7 kmh 29.92 in1013.2 mb 0.23 in5.8 mm 0.00 in0.0 mm 0.30 in7.6 mm
10:04 PM 63.8°F17.7°C 61.4°F16.3°C 92% 12.0 mph WNW19.3 kmh WNW 12.0 mph19.3 kmh 29.92 in1013.2 mb 0.24 in6.1 mm 0.30 in7.6 mm 0.31 in7.9 mm
10:06 PM 63.8°F17.7°C 61.7°F16.5°C 93% 5.0 mph NW8.0 kmh NW 12.0 mph19.3 kmh 29.92 in1013.2 mb 0.26 in6.6 mm 0.60 in15.2 mm 0.33 in8.4 mm
10:08 PM 63.8°F17.7°C 61.7°F16.5°C 93% 1.0 mph NNW1.6 kmh NNW 12.0 mph19.3 kmh 29.92 in1013.2 mb 0.27 in6.9 mm 0.30 in7.6 mm 0.34 in8.6 mm
10:10 PM 63.8°F17.7°C 61.7°F16.5°C 93% 1.0 mph NW1.6 kmh NW 12.0 mph19.3 kmh 29.93 in1013.5 mb 0.29 in7.4 mm 0.60 in15.2 mm 0.36 in9.1 mm
10:12 PM 63.7°F17.6°C 61.6°F16.4°C 93% 2.0 mph NNE3.2 kmh NNE 12.0 mph19.3 kmh 29.93 in1013.5 mb 0.31 in7.9 mm 0.60 in15.2 mm 0.38 in9.7 mm
10:14 PM 63.7°F17.6°C 61.6°F16.4°C 93% 3.0 mph NNE4.8 kmh NNE 12.0 mph19.3 kmh 29.93 in1013.5 mb 0.33 in8.4 mm 0.60 in15.2 mm 0.40 in10.2 mm
10:16 PM 63.7°F17.6°C 61.6°F16.4°C 93% 6.0 mph ENE9.7 kmh ENE 12.0 mph19.3 kmh 29.93 in1013.5 mb 0.34 in8.6 mm 0.30 in7.6 mm 0.41 in10.4 mm
10:18 PM 63.8°F17.7°C 61.7°F16.5°C 93% 9.0 mph E14.5 kmh E 12.0 mph19.3 kmh 29.92 in1013.2 mb 0.35 in8.9 mm 0.30 in7.6 mm 0.42 in10.7 mm
10:20 PM 63.8°F17.7°C 62.0°F16.7°C 94% 9.0 mph ENE14.5 kmh ENE 12.0 mph19.3 kmh 29.92 in1013.2 mb 0.37 in9.4 mm 0.60 in15.2 mm 0.44 in11.2 mm
10:22 PM 63.8°F17.7°C 62.0°F16.7°C 94% 10.0 mph NE16.1 kmh NE 12.0 mph19.3 kmh 29.91 in1012.9 mb 0.40 in10.2 mm 0.90 in22.9 mm 0.47 in11.9 mm
10:24 PM 63.7°F17.6°C 62.0°F16.7°C 94% 12.0 mph NE19.3 kmh NE 12.0 mph19.3 kmh 29.91 in1012.9 mb 0.43 in10.9 mm 0.90 in22.9 mm 0.50 in12.7 mm
10:26 PM 63.7°F17.6°C 62.0°F16.7°C 94% 5.0 mph E8.0 kmh E 12.0 mph19.3 kmh 29.90 in1012.5 mb 0.45 in11.4 mm 0.60 in15.2 mm 0.52 in13.2 mm
10:28 PM 63.6°F17.6°C 61.9°F16.6°C 94% 10.0 mph ENE16.1 kmh ENE 12.0 mph19.3 kmh 29.90 in1012.5 mb 0.46 in11.7 mm 0.30 in7.6 mm 0.53 in13.5 mm
10:30 PM 63.6°F17.6°C 61.9°F16.6°C 94% 12.0 mph NE19.3 kmh NE 12.0 mph19.3 kmh 29.90 in1012.5 mb 0.47 in11.9 mm 0.30 in7.6 mm 0.54 in13.7 mm
10:32 PM 63.6°F17.6°C 61.9°F16.6°C 94% 7.0 mph NE11.3 kmh NE 12.0 mph19.3 kmh 29.90 in1012.5 mb 0.39 in9.9 mm 0.00 in0.0 mm 0.54 in13.7 mm
10:34 PM 63.6°F17.6°C 61.9°F16.6°C 94% 7.0 mph ENE11.3 kmh ENE 13.0 mph20.9 kmh 29.90 in1012.5 mb 0.39 in9.9 mm 0.00 in0.0 mm 0.54 in13.7 mm
10:36 PM 63.6°F17.6°C 61.9°F16.6°C 94% 4.0 mph E6.4 kmh E 13.0 mph20.9 kmh 29.90 in1012.5 mb 0.39 in9.9 mm 0.00 in0.0 mm 0.54 in13.7 mm
10:38 PM 63.6°F17.6°C 61.9°F16.6°C 94% 5.0 mph NE8.0 kmh NE 13.0 mph20.9 kmh 29.90 in1012.5 mb 0.39 in9.9 mm 0.00 in0.0 mm 0.54 in13.7 mm
10:40 PM 63.7°F17.6°C 62.0°F16.7°C 94% 10.0 mph ENE16.1 kmh ENE 13.0 mph20.9 kmh 29.90 in1012.5 mb 0.39 in9.9 mm 0.00 in0.0 mm 0.54 in13.7 mm
10:42 PM 63.7°F17.6°C 62.2°F16.8°C 95% 8.0 mph E12.9 kmh E 13.0 mph20.9 kmh 29.90 in1012.5 mb 0.40 in10.2 mm 0.30 in7.6 mm 0.55 in14.0 mm
10:44 PM 63.7°F17.6°C 62.2°F16.8°C 95% 4.0 mph E6.4 kmh E 13.0 mph20.9 kmh 29.90 in1012.5 mb 0.40 in10.2 mm 0.00 in0.0 mm 0.55 in14.0 mm
10:46 PM 63.8°F17.7°C 62.3°F16.8°C 95% 7.0 mph ENE11.3 kmh ENE 13.0 mph20.9 kmh 29.90 in1012.5 mb 0.40 in10.2 mm 0.00 in0.0 mm 0.55 in14.0 mm
10:48 PM 63.8°F17.7°C 62.3°F16.8°C 95% 5.0 mph ENE8.0 kmh ENE 13.0 mph20.9 kmh 29.90 in1012.5 mb 0.40 in10.2 mm 0.00 in0.0 mm 0.55 in14.0 mm
10:50 PM 63.8°F17.7°C 62.3°F16.8°C 95% 7.0 mph ENE11.3 kmh ENE 13.0 mph20.9 kmh 29.90 in1012.5 mb 0.40 in10.2 mm 0.00 in0.0 mm 0.55 in14.0 mm
10:52 PM 63.9°F17.7°C 62.4°F16.9°C 95% 8.0 mph E12.9 kmh E 13.0 mph20.9 kmh 29.91 in1012.9 mb 0.40 in10.2 mm 0.00 in0.0 mm 0.55 in14.0 mm
10:54 PM 63.9°F17.7°C 62.4°F16.9°C 95% 4.0 mph ENE6.4 kmh ENE 13.0 mph20.9 kmh 29.91 in1012.9 mb 0.40 in10.2 mm 0.00 in0.0 mm 0.55 in14.0 mm
10:56 PM 63.9°F17.7°C 62.4°F16.9°C 95% 6.0 mph ENE9.7 kmh ENE 13.0 mph20.9 kmh 29.91 in1012.9 mb 0.40 in10.2 mm 0.00 in0.0 mm 0.55 in14.0 mm
10:58 PM 63.9°F17.7°C 62.4°F16.9°C 95% 3.0 mph E4.8 kmh E 13.0 mph20.9 kmh 29.92 in1013.2 mb 0.40 in10.2 mm 0.00 in0.0 mm 0.55 in14.0 mm
11:00 PM 63.9°F17.7°C 62.4°F16.9°C 95% 3.0 mph ENE4.8 kmh ENE 13.0 mph20.9 kmh 29.92 in1013.2 mb 0.41 in10.4 mm 0.01 in0.3 mm 0.56 in14.2 mm
11:02 PM 63.9°F17.7°C 62.4°F16.9°C 95% 1.0 mph E1.6 kmh E 6.0 mph9.7 kmh 29.93 in1013.5 mb 0.29 in7.4 mm 0.00 in0.0 mm 0.56 in14.2 mm
11:04 PM 64.0°F17.8°C 62.5°F16.9°C 95% 2.0 mph SSE3.2 kmh SSE 6.0 mph9.7 kmh 29.94 in1013.9 mb 0.30 in7.6 mm 0.30 in7.6 mm 0.57 in14.5 mm
11:06 PM 64.0°F17.8°C 62.5°F16.9°C 95% 2.0 mph SE3.2 kmh SE 6.0 mph9.7 kmh 29.95 in1014.2 mb 0.30 in7.6 mm 0.00 in0.0 mm 0.57 in14.5 mm
11:08 PM 63.9°F17.7°C 62.4°F16.9°C 95% 2.0 mph SE3.2 kmh SE 6.0 mph9.7 kmh 29.95 in1014.2 mb 0.31 in7.9 mm 0.30 in7.6 mm 0.58 in14.7 mm
11:10 PM 63.9°F17.7°C 62.4°F16.9°C 95% 6.0 mph NE9.7 kmh NE 9.0 mph14.5 kmh 29.94 in1013.9 mb 0.31 in7.9 mm 0.00 in0.0 mm 0.58 in14.7 mm
11:12 PM 64.0°F17.8°C 62.5°F16.9°C 95% 3.0 mph NE4.8 kmh NE 9.0 mph14.5 kmh 29.93 in1013.5 mb 0.31 in7.9 mm 0.00 in0.0 mm 0.58 in14.7 mm
11:14 PM 64.1°F17.8°C 62.6°F17.0°C 95% 3.0 mph ENE4.8 kmh ENE 9.0 mph14.5 kmh 29.93 in1013.5 mb 0.32 in8.1 mm 0.30 in7.6 mm 0.59 in15.0 mm
11:16 PM 64.1°F17.8°C 62.6°F17.0°C 95% 7.0 mph NE11.3 kmh NE 9.0 mph14.5 kmh 29.94 in1013.9 mb 0.33 in8.4 mm 0.30 in7.6 mm 0.60 in15.2 mm
11:18 PM 64.1°F17.8°C 62.6°F17.0°C 95% 3.0 mph ENE4.8 kmh ENE 9.0 mph14.5 kmh 29.94 in1013.9 mb 0.33 in8.4 mm 0.00 in0.0 mm 0.60 in15.2 mm
11:20 PM 64.1°F17.8°C 62.6°F17.0°C 95% 5.0 mph ENE8.0 kmh ENE 9.0 mph14.5 kmh 29.93 in1013.5 mb 0.34 in8.6 mm 0.30 in7.6 mm 0.61 in15.5 mm
11:22 PM 64.1°F17.8°C 62.6°F17.0°C 95% 3.0 mph NE4.8 kmh NE 9.0 mph14.5 kmh 29.93 in1013.5 mb 0.35 in8.9 mm 0.30 in7.6 mm 0.62 in15.7 mm
11:24 PM 64.1°F17.8°C 62.6°F17.0°C 95% 2.0 mph ENE3.2 kmh ENE 9.0 mph14.5 kmh 29.93 in1013.5 mb 0.35 in8.9 mm 0.00 in0.0 mm 0.62 in15.7 mm
11:26 PM 64.1°F17.8°C 62.6°F17.0°C 95% 9.0 mph NE14.5 kmh NE 9.0 mph14.5 kmh 29.93 in1013.5 mb 0.35 in8.9 mm 0.00 in0.0 mm 0.62 in15.7 mm
11:28 PM 64.1°F17.8°C 62.6°F17.0°C 95% 2.0 mph NE3.2 kmh NE 9.0 mph14.5 kmh 29.93 in1013.5 mb 0.36 in9.1 mm 0.30 in7.6 mm 0.63 in16.0 mm
11:30 PM 64.0°F17.8°C 62.5°F16.9°C 95% 5.0 mph NE8.0 kmh NE 9.0 mph14.5 kmh 29.93 in1013.5 mb 0.37 in9.4 mm 0.30 in7.6 mm 0.64 in16.3 mm
11:32 PM 64.0°F17.8°C 62.5°F16.9°C 95% 5.0 mph NE8.0 kmh NE 7.0 mph11.3 kmh 29.93 in1013.5 mb 0.11 in2.8 mm 0.00 in0.0 mm 0.64 in16.3 mm
11:34 PM 64.0°F17.8°C 62.5°F16.9°C 95% 1.0 mph NE1.6 kmh NE 7.0 mph11.3 kmh 29.93 in1013.5 mb 0.12 in3.0 mm 0.30 in7.6 mm 0.65 in16.5 mm
11:36 PM 64.0°F17.8°C 62.5°F16.9°C 95% 5.0 mph ENE8.0 kmh ENE 7.0 mph11.3 kmh 29.93 in1013.5 mb 0.12 in3.0 mm 0.00 in0.0 mm 0.65 in16.5 mm
11:38 PM 64.0°F17.8°C 62.5°F16.9°C 95% 1.0 mph ESE1.6 kmh ESE 7.0 mph11.3 kmh 29.93 in1013.5 mb 0.12 in3.0 mm 0.00 in0.0 mm 0.65 in16.5 mm
11:40 PM 64.0°F17.8°C 62.5°F16.9°C 95% 5.0 mph E8.0 kmh E 7.0 mph11.3 kmh 29.93 in1013.5 mb 0.13 in3.3 mm 0.30 in7.6 mm 0.66 in16.8 mm
11:42 PM 63.9°F17.7°C 62.4°F16.9°C 95% 6.0 mph ENE9.7 kmh ENE 7.0 mph11.3 kmh 29.93 in1013.5 mb 0.13 in3.3 mm 0.00 in0.0 mm 0.66 in16.8 mm
11:44 PM 64.0°F17.8°C 62.5°F16.9°C 95% Calm Calm 7.0 mph11.3 kmh 29.92 in1013.2 mb 0.13 in3.3 mm 0.00 in0.0 mm 0.66 in16.8 mm
11:46 PM 63.9°F17.7°C 62.4°F16.9°C 95% 4.0 mph NE6.4 kmh NE 9.0 mph14.5 kmh 29.92 in1013.2 mb 0.14 in3.6 mm 0.30 in7.6 mm 0.67 in17.0 mm
11:48 PM 63.9°F17.7°C 62.4°F16.9°C 95% 4.0 mph E6.4 kmh E 9.0 mph14.5 kmh 29.92 in1013.2 mb 0.14 in3.6 mm 0.00 in0.0 mm 0.67 in17.0 mm
11:50 PM 63.9°F17.7°C 62.4°F16.9°C 95% 3.0 mph ENE4.8 kmh ENE 9.0 mph14.5 kmh 29.92 in1013.2 mb 0.14 in3.6 mm 0.00 in0.0 mm 0.67 in17.0 mm
11:52 PM 63.9°F17.7°C 62.4°F16.9°C 95% 5.0 mph ENE8.0 kmh ENE 9.0 mph14.5 kmh 29.92 in1013.2 mb 0.14 in3.6 mm 0.00 in0.0 mm 0.67 in17.0 mm
11:54 PM 63.9°F17.7°C 62.4°F16.9°C 95% 3.0 mph NE4.8 kmh NE 9.0 mph14.5 kmh 29.92 in1013.2 mb 0.15 in3.8 mm 0.30 in7.6 mm 0.68 in17.3 mm
11:56 PM 63.9°F17.7°C 62.4°F16.9°C 95% 4.0 mph ENE6.4 kmh ENE 9.0 mph14.5 kmh 29.92 in1013.2 mb 0.15 in3.8 mm 0.00 in0.0 mm 0.68 in17.3 mm
11:58 PM 63.9°F17.7°C 62.4°F16.9°C 95% 10.0 mph ENE16.1 kmh ENE 11.0 mph17.7 kmh 29.92 in1013.2 mb 0.15 in3.8 mm 0.00 in0.0 mm 0.68 in17.3 mm